Check out our new PWSWeather beta!
PWSweather.com
Personal Weather Stations
Station Observations
KILASHKU1
Ashkum, IL

Ashkum, IL

Lat: 40.8779862, Lon: -87.846552

Elevation: 626

Station Type: Davis Vantage Pro 2

High Low Average
Temperature 55.3°F12.9°C 34.2°F1.2°C 41.5°F5.3°C
Dew Point 53.6°F12.0°C 30.1°F-1.1°C 37.5°F3.1°C
Winds 29.0 mph 46.7 kmh 5.0 mph 8.0 kmh 19.0 mph SW30.6 kmh SW
Wind Gusts 43.0 mph69.2 kmh 10.0 mph16.1 kmh 28.0 mph45.1 kmh
Humidity 94% 78% 86%
Pressure 30.33 in1027.1 mb 29.36 in994.2 mb -
Precipitation 0.38 in9.7 mm - -
Hour Temp Dew Point Humidity Winds Wind Gusts Pressure Precip Precip Rate Daily Precip Total
12:00 AM 54.9°F12.7°C 53.2°F11.8°C 94% 6.0 mph SE9.7 kmh SE 13.0 mph20.9 kmh 29.44 in997.0 mb 0.00 in0.0 mm 0.00 in0.0 mm 0.00 in0.0 mm
12:02 AM 54.9°F12.7°C 53.2°F11.8°C 94% 6.0 mph SE9.7 kmh SE 13.0 mph20.9 kmh 29.44 in997.0 mb 0.00 in0.0 mm 0.00 in0.0 mm 0.00 in0.0 mm
12:04 AM 54.9°F12.7°C 53.2°F11.8°C 94% 6.0 mph SE9.7 kmh SE 13.0 mph20.9 kmh 29.44 in997.0 mb 0.00 in0.0 mm 0.00 in0.0 mm 0.00 in0.0 mm
12:06 AM 55.0°F12.8°C 53.3°F11.8°C 94% 6.0 mph SE9.7 kmh SE 12.0 mph19.3 kmh 29.44 in997.0 mb 0.00 in0.0 mm 0.00 in0.0 mm 0.00 in0.0 mm
12:08 AM 55.0°F12.8°C 53.3°F11.8°C 94% 6.0 mph SE9.7 kmh SE 15.0 mph24.1 kmh 29.43 in996.6 mb 0.00 in0.0 mm 0.00 in0.0 mm 0.00 in0.0 mm
12:10 AM 55.0°F12.8°C 53.3°F11.8°C 94% 6.0 mph SE9.7 kmh SE 19.0 mph30.6 kmh 29.43 in996.6 mb 0.00 in0.0 mm 0.00 in0.0 mm 0.00 in0.0 mm
12:12 AM 55.1°F12.8°C 53.4°F11.9°C 94% 7.0 mph SE11.3 kmh SE 19.0 mph30.6 kmh 29.43 in996.6 mb 0.00 in0.0 mm 0.00 in0.0 mm 0.00 in0.0 mm
12:14 AM 55.1°F12.8°C 53.4°F11.9°C 94% 8.0 mph SE12.9 kmh SE 19.0 mph30.6 kmh 29.43 in996.6 mb 0.00 in0.0 mm 0.00 in0.0 mm 0.00 in0.0 mm
12:16 AM 55.1°F12.8°C 53.4°F11.9°C 94% 8.0 mph SE12.9 kmh SE 19.0 mph30.6 kmh 29.43 in996.6 mb 0.00 in0.0 mm 0.00 in0.0 mm 0.00 in0.0 mm
12:18 AM 55.1°F12.8°C 53.4°F11.9°C 94% 8.0 mph SE12.9 kmh SE 19.0 mph30.6 kmh 29.43 in996.6 mb 0.00 in0.0 mm 0.00 in0.0 mm 0.00 in0.0 mm
12:20 AM 55.2°F12.9°C 53.5°F11.9°C 94% 8.0 mph SE12.9 kmh SE 18.0 mph29.0 kmh 29.44 in997.0 mb 0.00 in0.0 mm 0.00 in0.0 mm 0.00 in0.0 mm
12:22 AM 55.2°F12.9°C 53.5°F11.9°C 94% 9.0 mph SSE14.5 kmh SSE 19.0 mph30.6 kmh 29.44 in997.0 mb 0.00 in0.0 mm 0.00 in0.0 mm 0.00 in0.0 mm
12:24 AM 55.3°F12.9°C 53.6°F12.0°C 94% 9.0 mph SSE14.5 kmh SSE 19.0 mph30.6 kmh 29.43 in996.6 mb 0.00 in0.0 mm 0.00 in0.0 mm 0.00 in0.0 mm
12:26 AM 55.3°F12.9°C 53.6°F12.0°C 94% 9.0 mph SSE14.5 kmh SSE 19.0 mph30.6 kmh 29.44 in997.0 mb 0.00 in0.0 mm 0.00 in0.0 mm 0.00 in0.0 mm
12:28 AM 55.3°F12.9°C 53.6°F12.0°C 94% 9.0 mph SSE14.5 kmh SSE 19.0 mph30.6 kmh 29.44 in997.0 mb 0.00 in0.0 mm 0.00 in0.0 mm 0.00 in0.0 mm
12:30 AM 55.3°F12.9°C 53.6°F12.0°C 94% 9.0 mph SSE14.5 kmh SSE 19.0 mph30.6 kmh 29.44 in997.0 mb 0.00 in0.0 mm 0.00 in0.0 mm 0.00 in0.0 mm
12:32 AM 55.2°F12.9°C 53.5°F11.9°C 94% 8.0 mph SSE12.9 kmh SSE 17.0 mph27.4 kmh 29.44 in997.0 mb 0.00 in0.0 mm 0.00 in0.0 mm 0.00 in0.0 mm
12:34 AM 55.2°F12.9°C 53.5°F11.9°C 94% 9.0 mph SSE14.5 kmh SSE 17.0 mph27.4 kmh 29.43 in996.6 mb 0.00 in0.0 mm 0.00 in0.0 mm 0.00 in0.0 mm
12:36 AM 55.2°F12.9°C 53.5°F11.9°C 94% 8.0 mph SSE12.9 kmh SSE 17.0 mph27.4 kmh 29.43 in996.6 mb 0.00 in0.0 mm 0.00 in0.0 mm 0.00 in0.0 mm
12:38 AM 55.1°F12.8°C 53.4°F11.9°C 94% 8.0 mph SSE12.9 kmh SSE 17.0 mph27.4 kmh 29.43 in996.6 mb 0.00 in0.0 mm 0.00 in0.0 mm 0.00 in0.0 mm
12:40 AM 55.1°F12.8°C 53.4°F11.9°C 94% 8.0 mph SSE12.9 kmh SSE 17.0 mph27.4 kmh 29.42 in996.3 mb 0.00 in0.0 mm 0.00 in0.0 mm 0.00 in0.0 mm
12:42 AM 55.1°F12.8°C 53.4°F11.9°C 94% 8.0 mph SSE12.9 kmh SSE 17.0 mph27.4 kmh 29.42 in996.3 mb 0.00 in0.0 mm 0.00 in0.0 mm 0.00 in0.0 mm
12:44 AM 55.1°F12.8°C 53.4°F11.9°C 94% 7.0 mph SSE11.3 kmh SSE 17.0 mph27.4 kmh 29.41 in995.9 mb 0.00 in0.0 mm 0.00 in0.0 mm 0.00 in0.0 mm
12:46 AM 55.1°F12.8°C 53.4°F11.9°C 94% 7.0 mph SSE11.3 kmh SSE 17.0 mph27.4 kmh 29.42 in996.3 mb 0.00 in0.0 mm 0.00 in0.0 mm 0.00 in0.0 mm
12:48 AM 55.0°F12.8°C 53.3°F11.8°C 94% 6.0 mph SSE9.7 kmh SSE 17.0 mph27.4 kmh 29.42 in996.3 mb 0.00 in0.0 mm 0.00 in0.0 mm 0.00 in0.0 mm
12:50 AM 55.0°F12.8°C 53.3°F11.8°C 94% 6.0 mph SSE9.7 kmh SSE 14.0 mph22.5 kmh 29.42 in996.3 mb 0.00 in0.0 mm 0.00 in0.0 mm 0.00 in0.0 mm
12:52 AM 55.0°F12.8°C 53.3°F11.8°C 94% 7.0 mph SSE11.3 kmh SSE 14.0 mph22.5 kmh 29.42 in996.3 mb 0.00 in0.0 mm 0.00 in0.0 mm 0.00 in0.0 mm
12:54 AM 55.0°F12.8°C 53.3°F11.8°C 94% 7.0 mph SSE11.3 kmh SSE 14.0 mph22.5 kmh 29.42 in996.3 mb 0.00 in0.0 mm 0.00 in0.0 mm 0.00 in0.0 mm
12:56 AM 54.9°F12.7°C 53.2°F11.8°C 94% 7.0 mph S11.3 kmh S 16.0 mph25.7 kmh 29.42 in996.3 mb 0.00 in0.0 mm 0.00 in0.0 mm 0.00 in0.0 mm
12:58 AM 55.0°F12.8°C 53.3°F11.8°C 94% 9.0 mph S14.5 kmh S 16.0 mph25.7 kmh 29.42 in996.3 mb 0.00 in0.0 mm 0.00 in0.0 mm 0.00 in0.0 mm
01:00 AM 55.0°F12.8°C 53.3°F11.8°C 94% 9.0 mph S14.5 kmh S 16.0 mph25.7 kmh 29.42 in996.3 mb 0.00 in0.0 mm 0.00 in0.0 mm 0.00 in0.0 mm
01:02 AM 55.0°F12.8°C 53.3°F11.8°C 94% 9.0 mph S14.5 kmh S 20.0 mph32.2 kmh 29.43 in996.6 mb 0.00 in0.0 mm 0.00 in0.0 mm 0.00 in0.0 mm
01:04 AM 55.0°F12.8°C 53.3°F11.8°C 94% 10.0 mph S16.1 kmh S 20.0 mph32.2 kmh 29.43 in996.6 mb 0.00 in0.0 mm 0.00 in0.0 mm 0.00 in0.0 mm
01:06 AM 55.0°F12.8°C 53.3°F11.8°C 94% 11.0 mph S17.7 kmh S 20.0 mph32.2 kmh 29.43 in996.6 mb 0.00 in0.0 mm 0.00 in0.0 mm 0.00 in0.0 mm
01:08 AM 55.0°F12.8°C 53.3°F11.8°C 94% 10.0 mph S16.1 kmh S 20.0 mph32.2 kmh 29.42 in996.3 mb 0.00 in0.0 mm 0.00 in0.0 mm 0.00 in0.0 mm
01:10 AM 55.0°F12.8°C 53.3°F11.8°C 94% 11.0 mph S17.7 kmh S 20.0 mph32.2 kmh 29.42 in996.3 mb 0.00 in0.0 mm 0.00 in0.0 mm 0.00 in0.0 mm
01:12 AM 54.9°F12.7°C 53.2°F11.8°C 94% 11.0 mph S17.7 kmh S 17.0 mph27.4 kmh 29.42 in996.3 mb 0.00 in0.0 mm 0.00 in0.0 mm 0.00 in0.0 mm
01:14 AM 54.9°F12.7°C 53.2°F11.8°C 94% 10.0 mph S16.1 kmh S 17.0 mph27.4 kmh 29.41 in995.9 mb 0.00 in0.0 mm 0.00 in0.0 mm 0.00 in0.0 mm
01:16 AM 54.9°F12.7°C 53.2°F11.8°C 94% 10.0 mph S16.1 kmh S 17.0 mph27.4 kmh 29.42 in996.3 mb 0.00 in0.0 mm 0.00 in0.0 mm 0.00 in0.0 mm
01:18 AM 54.9°F12.7°C 53.2°F11.8°C 94% 10.0 mph SSE16.1 kmh SSE 19.0 mph30.6 kmh 29.41 in995.9 mb 0.00 in0.0 mm 0.00 in0.0 mm 0.00 in0.0 mm
01:20 AM 55.0°F12.8°C 53.3°F11.8°C 94% 11.0 mph SSE17.7 kmh SSE 19.0 mph30.6 kmh 29.41 in995.9 mb 0.00 in0.0 mm 0.00 in0.0 mm 0.00 in0.0 mm
01:22 AM 55.0°F12.8°C 53.3°F11.8°C 94% 11.0 mph SSE17.7 kmh SSE 19.0 mph30.6 kmh 29.41 in995.9 mb 0.00 in0.0 mm 0.00 in0.0 mm 0.00 in0.0 mm
01:24 AM 55.1°F12.8°C 53.4°F11.9°C 94% 11.0 mph SSE17.7 kmh SSE 19.0 mph30.6 kmh 29.40 in995.6 mb 0.00 in0.0 mm 0.00 in0.0 mm 0.00 in0.0 mm
01:26 AM 55.1°F12.8°C 53.4°F11.9°C 94% 11.0 mph SSE17.7 kmh SSE 19.0 mph30.6 kmh 29.40 in995.6 mb 0.00 in0.0 mm 0.00 in0.0 mm 0.00 in0.0 mm
01:28 AM 55.1°F12.8°C 53.4°F11.9°C 94% 10.0 mph SSE16.1 kmh SSE 19.0 mph30.6 kmh 29.40 in995.6 mb 0.00 in0.0 mm 0.00 in0.0 mm 0.00 in0.0 mm
01:30 AM 55.1°F12.8°C 53.4°F11.9°C 94% 9.0 mph SSE14.5 kmh SSE 18.0 mph29.0 kmh 29.39 in995.3 mb 0.00 in0.0 mm 0.00 in0.0 mm 0.00 in0.0 mm
01:32 AM 55.1°F12.8°C 53.4°F11.9°C 94% 8.0 mph SSE12.9 kmh SSE 16.0 mph25.7 kmh 29.39 in995.3 mb 0.00 in0.0 mm 0.00 in0.0 mm 0.00 in0.0 mm
01:34 AM 55.1°F12.8°C 53.4°F11.9°C 94% 7.0 mph SSE11.3 kmh SSE 16.0 mph25.7 kmh 29.38 in994.9 mb 0.00 in0.0 mm 0.00 in0.0 mm 0.00 in0.0 mm
01:36 AM 55.1°F12.8°C 53.4°F11.9°C 94% 7.0 mph SSE11.3 kmh SSE 16.0 mph25.7 kmh 29.37 in994.6 mb 0.00 in0.0 mm 0.00 in0.0 mm 0.00 in0.0 mm
01:38 AM 55.0°F12.8°C 53.3°F11.8°C 94% 6.0 mph SE9.7 kmh SE 16.0 mph25.7 kmh 29.38 in994.9 mb 0.00 in0.0 mm 0.00 in0.0 mm 0.00 in0.0 mm
01:40 AM 55.0°F12.8°C 53.3°F11.8°C 94% 7.0 mph SE11.3 kmh SE 16.0 mph25.7 kmh 29.38 in994.9 mb 0.00 in0.0 mm 0.00 in0.0 mm 0.00 in0.0 mm
01:42 AM 55.0°F12.8°C 53.3°F11.8°C 94% 7.0 mph SE11.3 kmh SE 16.0 mph25.7 kmh 29.38 in994.9 mb 0.00 in0.0 mm 0.00 in0.0 mm 0.00 in0.0 mm
01:44 AM 55.0°F12.8°C 53.3°F11.8°C 94% 7.0 mph SE11.3 kmh SE 15.0 mph24.1 kmh 29.38 in994.9 mb 0.00 in0.0 mm 0.00 in0.0 mm 0.00 in0.0 mm
01:46 AM 55.0°F12.8°C 53.3°F11.8°C 94% 6.0 mph SE9.7 kmh SE 15.0 mph24.1 kmh 29.38 in994.9 mb 0.00 in0.0 mm 0.00 in0.0 mm 0.00 in0.0 mm
01:48 AM 55.0°F12.8°C 53.3°F11.8°C 94% 6.0 mph SE9.7 kmh SE 15.0 mph24.1 kmh 29.38 in994.9 mb 0.00 in0.0 mm 0.00 in0.0 mm 0.00 in0.0 mm
01:50 AM 54.9°F12.7°C 53.2°F11.8°C 94% 6.0 mph SE9.7 kmh SE 15.0 mph24.1 kmh 29.38 in994.9 mb 0.00 in0.0 mm 0.00 in0.0 mm 0.00 in0.0 mm
01:52 AM 54.9°F12.7°C 53.2°F11.8°C 94% 5.0 mph SE8.0 kmh SE 15.0 mph24.1 kmh 29.38 in994.9 mb 0.00 in0.0 mm 0.00 in0.0 mm 0.00 in0.0 mm
01:54 AM 54.9°F12.7°C 53.2°F11.8°C 94% 5.0 mph SE8.0 kmh SE 15.0 mph24.1 kmh 29.38 in994.9 mb 0.00 in0.0 mm 0.00 in0.0 mm 0.00 in0.0 mm
01:56 AM 54.9°F12.7°C 53.2°F11.8°C 94% 6.0 mph SE9.7 kmh SE 15.0 mph24.1 kmh 29.38 in994.9 mb 0.00 in0.0 mm 0.00 in0.0 mm 0.00 in0.0 mm
01:58 AM 54.8°F12.7°C 53.1°F11.7°C 94% 6.0 mph SE9.7 kmh SE 15.0 mph24.1 kmh 29.39 in995.3 mb 0.00 in0.0 mm 0.00 in0.0 mm 0.00 in0.0 mm
02:00 AM 54.8°F12.7°C 53.1°F11.7°C 94% 7.0 mph SE11.3 kmh SE 15.0 mph24.1 kmh 29.39 in995.3 mb 0.00 in0.0 mm 0.00 in0.0 mm 0.00 in0.0 mm
02:02 AM 54.8°F12.7°C 53.1°F11.7°C 94% 7.0 mph SE11.3 kmh SE 16.0 mph25.7 kmh 29.40 in995.6 mb 0.00 in0.0 mm 0.00 in0.0 mm 0.00 in0.0 mm
02:04 AM 54.9°F12.7°C 53.2°F11.8°C 94% 8.0 mph SE12.9 kmh SE 23.0 mph37.0 kmh 29.39 in995.3 mb 0.00 in0.0 mm 0.00 in0.0 mm 0.00 in0.0 mm
02:06 AM 55.0°F12.8°C 53.3°F11.8°C 94% 10.0 mph SSE16.1 kmh SSE 34.0 mph54.7 kmh 29.40 in995.6 mb 0.00 in0.0 mm 0.00 in0.0 mm 0.00 in0.0 mm
02:08 AM 55.2°F12.9°C 53.5°F11.9°C 94% 13.0 mph S20.9 kmh S 34.0 mph54.7 kmh 29.40 in995.6 mb 0.00 in0.0 mm 0.00 in0.0 mm 0.00 in0.0 mm
02:10 AM 55.2°F12.9°C 53.5°F11.9°C 94% 15.0 mph S24.1 kmh S 34.0 mph54.7 kmh 29.40 in995.6 mb 0.00 in0.0 mm 0.00 in0.0 mm 0.00 in0.0 mm
02:12 AM 55.3°F12.9°C 53.6°F12.0°C 94% 17.0 mph S27.4 kmh S 34.0 mph54.7 kmh 29.40 in995.6 mb 0.00 in0.0 mm 0.00 in0.0 mm 0.00 in0.0 mm
02:14 AM 55.2°F12.9°C 53.5°F11.9°C 94% 18.0 mph S29.0 kmh S 34.0 mph54.7 kmh 29.41 in995.9 mb 0.00 in0.0 mm 0.00 in0.0 mm 0.00 in0.0 mm
02:16 AM 55.2°F12.9°C 53.5°F11.9°C 94% 18.0 mph S29.0 kmh S 31.0 mph49.9 kmh 29.40 in995.6 mb 0.00 in0.0 mm 0.00 in0.0 mm 0.00 in0.0 mm
02:18 AM 55.2°F12.9°C 53.5°F11.9°C 94% 18.0 mph S29.0 kmh S 30.0 mph48.3 kmh 29.41 in995.9 mb 0.00 in0.0 mm 0.00 in0.0 mm 0.00 in0.0 mm
02:20 AM 55.2°F12.9°C 53.5°F11.9°C 94% 19.0 mph S30.6 kmh S 35.0 mph56.3 kmh 29.41 in995.9 mb 0.00 in0.0 mm 0.00 in0.0 mm 0.00 in0.0 mm
02:22 AM 55.2°F12.9°C 53.2°F11.8°C 93% 21.0 mph S33.8 kmh S 36.0 mph57.9 kmh 29.43 in996.6 mb 0.00 in0.0 mm 0.00 in0.0 mm 0.00 in0.0 mm
02:24 AM 55.1°F12.8°C 53.1°F11.7°C 93% 23.0 mph SSW37.0 kmh SSW 36.0 mph57.9 kmh 29.43 in996.6 mb 0.00 in0.0 mm 0.00 in0.0 mm 0.00 in0.0 mm
02:26 AM 55.0°F12.8°C 53.0°F11.7°C 93% 23.0 mph SSW37.0 kmh SSW 36.0 mph57.9 kmh 29.43 in996.6 mb 0.00 in0.0 mm 0.00 in0.0 mm 0.00 in0.0 mm
02:28 AM 55.0°F12.8°C 53.0°F11.7°C 93% 23.0 mph SW37.0 kmh SW 36.0 mph57.9 kmh 29.42 in996.3 mb 0.00 in0.0 mm 0.00 in0.0 mm 0.00 in0.0 mm
02:30 AM 54.9°F12.7°C 52.9°F11.6°C 93% 23.0 mph SW37.0 kmh SW 36.0 mph57.9 kmh 29.42 in996.3 mb 0.00 in0.0 mm 0.00 in0.0 mm 0.00 in0.0 mm
02:32 AM 54.9°F12.7°C 52.9°F11.6°C 93% 21.0 mph SW33.8 kmh SW 31.0 mph49.9 kmh 29.42 in996.3 mb 0.00 in0.0 mm 0.00 in0.0 mm 0.00 in0.0 mm
02:34 AM 54.7°F12.6°C 52.7°F11.5°C 93% 19.0 mph SW30.6 kmh SW 30.0 mph48.3 kmh 29.43 in996.6 mb 0.00 in0.0 mm 0.00 in0.0 mm 0.00 in0.0 mm
02:36 AM 54.6°F12.6°C 52.6°F11.4°C 93% 17.0 mph SW27.4 kmh SW 28.0 mph45.1 kmh 29.42 in996.3 mb 0.00 in0.0 mm 0.00 in0.0 mm 0.00 in0.0 mm
02:38 AM 54.2°F12.3°C 51.9°F11.1°C 92% 17.0 mph SW27.4 kmh SW 26.0 mph41.8 kmh 29.41 in995.9 mb 0.00 in0.0 mm 0.00 in0.0 mm 0.00 in0.0 mm
02:40 AM 54.0°F12.2°C 51.4°F10.8°C 91% 16.0 mph SW25.7 kmh SW 26.0 mph41.8 kmh 29.40 in995.6 mb 0.00 in0.0 mm 0.00 in0.0 mm 0.00 in0.0 mm
02:42 AM 54.0°F12.2°C 51.4°F10.8°C 91% 14.0 mph SW22.5 kmh SW 26.0 mph41.8 kmh 29.40 in995.6 mb 0.00 in0.0 mm 0.00 in0.0 mm 0.00 in0.0 mm
02:44 AM 53.9°F12.2°C 51.0°F10.6°C 90% 14.0 mph SW22.5 kmh SW 23.0 mph37.0 kmh 29.40 in995.6 mb 0.00 in0.0 mm 0.00 in0.0 mm 0.00 in0.0 mm
02:46 AM 53.8°F12.1°C 50.9°F10.5°C 90% 13.0 mph SSW20.9 kmh SSW 23.0 mph37.0 kmh 29.39 in995.3 mb 0.00 in0.0 mm 0.00 in0.0 mm 0.00 in0.0 mm
02:48 AM 53.7°F12.1°C 50.8°F10.4°C 90% 12.0 mph SSW19.3 kmh SSW 18.0 mph29.0 kmh 29.38 in994.9 mb 0.00 in0.0 mm 0.00 in0.0 mm 0.00 in0.0 mm
02:50 AM 53.7°F12.1°C 50.8°F10.4°C 90% 11.0 mph SSW17.7 kmh SSW 17.0 mph27.4 kmh 29.37 in994.6 mb 0.00 in0.0 mm 0.00 in0.0 mm 0.00 in0.0 mm
02:52 AM 53.5°F11.9°C 50.6°F10.3°C 90% 10.0 mph S16.1 kmh S 17.0 mph27.4 kmh 29.37 in994.6 mb 0.00 in0.0 mm 0.00 in0.0 mm 0.00 in0.0 mm
02:54 AM 53.4°F11.9°C 50.2°F10.1°C 89% 10.0 mph S16.1 kmh S 17.0 mph27.4 kmh 29.38 in994.9 mb 0.00 in0.0 mm 0.00 in0.0 mm 0.00 in0.0 mm
02:56 AM 53.3°F11.8°C 49.8°F9.9°C 88% 10.0 mph S16.1 kmh S 17.0 mph27.4 kmh 29.38 in994.9 mb 0.00 in0.0 mm 0.00 in0.0 mm 0.00 in0.0 mm
02:58 AM 53.3°F11.8°C 49.8°F9.9°C 88% 10.0 mph S16.1 kmh S 17.0 mph27.4 kmh 29.37 in994.6 mb 0.00 in0.0 mm 0.00 in0.0 mm 0.00 in0.0 mm
03:00 AM 53.3°F11.8°C 49.8°F9.9°C 88% 11.0 mph S17.7 kmh S 17.0 mph27.4 kmh 29.37 in994.6 mb 0.00 in0.0 mm 0.00 in0.0 mm 0.00 in0.0 mm
03:02 AM 53.2°F11.8°C 49.7°F9.8°C 88% 11.0 mph S17.7 kmh S 17.0 mph27.4 kmh 29.37 in994.6 mb 0.00 in0.0 mm 0.00 in0.0 mm 0.00 in0.0 mm
03:04 AM 53.1°F11.7°C 49.6°F9.8°C 88% 11.0 mph S17.7 kmh S 16.0 mph25.7 kmh 29.37 in994.6 mb 0.00 in0.0 mm 0.00 in0.0 mm 0.00 in0.0 mm
03:06 AM 53.0°F11.7°C 49.5°F9.7°C 88% 10.0 mph S16.1 kmh S 16.0 mph25.7 kmh 29.37 in994.6 mb 0.00 in0.0 mm 0.00 in0.0 mm 0.00 in0.0 mm
03:08 AM 52.9°F11.6°C 49.4°F9.7°C 88% 10.0 mph S16.1 kmh S 13.0 mph20.9 kmh 29.37 in994.6 mb 0.00 in0.0 mm 0.00 in0.0 mm 0.00 in0.0 mm
03:10 AM 52.9°F11.6°C 49.4°F9.7°C 88% 10.0 mph S16.1 kmh S 14.0 mph22.5 kmh 29.37 in994.6 mb 0.00 in0.0 mm 0.00 in0.0 mm 0.00 in0.0 mm
03:12 AM 52.9°F11.6°C 49.1°F9.5°C 87% 10.0 mph S16.1 kmh S 14.0 mph22.5 kmh 29.37 in994.6 mb 0.00 in0.0 mm 0.00 in0.0 mm 0.00 in0.0 mm
03:14 AM 53.0°F11.7°C 49.2°F9.6°C 87% 9.0 mph S14.5 kmh S 14.0 mph22.5 kmh 29.37 in994.6 mb 0.00 in0.0 mm 0.00 in0.0 mm 0.00 in0.0 mm
03:16 AM 53.0°F11.7°C 49.2°F9.6°C 87% 8.0 mph SSE12.9 kmh SSE 14.0 mph22.5 kmh 29.36 in994.2 mb 0.00 in0.0 mm 0.00 in0.0 mm 0.00 in0.0 mm
03:18 AM 53.0°F11.7°C 49.2°F9.6°C 87% 7.0 mph SSE11.3 kmh SSE 14.0 mph22.5 kmh 29.36 in994.2 mb 0.00 in0.0 mm 0.00 in0.0 mm 0.00 in0.0 mm
03:20 AM 52.9°F11.6°C 49.1°F9.5°C 87% 6.0 mph SSE9.7 kmh SSE 12.0 mph19.3 kmh 29.37 in994.6 mb 0.00 in0.0 mm 0.00 in0.0 mm 0.00 in0.0 mm
03:22 AM 52.8°F11.6°C 49.0°F9.4°C 87% 5.0 mph SSE8.0 kmh SSE 12.0 mph19.3 kmh 29.37 in994.6 mb 0.00 in0.0 mm 0.00 in0.0 mm 0.00 in0.0 mm
03:24 AM 52.6°F11.4°C 49.1°F9.5°C 88% 5.0 mph SSE8.0 kmh SSE 12.0 mph19.3 kmh 29.37 in994.6 mb 0.00 in0.0 mm 0.00 in0.0 mm 0.00 in0.0 mm
03:26 AM 52.5°F11.4°C 49.0°F9.4°C 88% 5.0 mph SSE8.0 kmh SSE 10.0 mph16.1 kmh 29.37 in994.6 mb 0.00 in0.0 mm 0.00 in0.0 mm 0.00 in0.0 mm
03:28 AM 52.4°F11.3°C 48.9°F9.4°C 88% 5.0 mph S8.0 kmh S 12.0 mph19.3 kmh 29.37 in994.6 mb 0.00 in0.0 mm 0.00 in0.0 mm 0.00 in0.0 mm
03:30 AM 52.4°F11.3°C 49.3°F9.6°C 89% 6.0 mph S9.7 kmh S 14.0 mph22.5 kmh 29.37 in994.6 mb 0.00 in0.0 mm 0.00 in0.0 mm 0.00 in0.0 mm
03:32 AM 52.3°F11.3°C 48.9°F9.4°C 88% 7.0 mph S11.3 kmh S 14.0 mph22.5 kmh 29.37 in994.6 mb 0.00 in0.0 mm 0.00 in0.0 mm 0.00 in0.0 mm
03:34 AM 52.4°F11.3°C 48.9°F9.4°C 88% 8.0 mph S12.9 kmh S 14.0 mph22.5 kmh 29.37 in994.6 mb 0.00 in0.0 mm 0.00 in0.0 mm 0.00 in0.0 mm
03:36 AM 52.3°F11.3°C 48.9°F9.4°C 88% 9.0 mph S14.5 kmh S 15.0 mph24.1 kmh 29.37 in994.6 mb 0.00 in0.0 mm 0.00 in0.0 mm 0.00 in0.0 mm
03:38 AM 52.3°F11.3°C 48.9°F9.4°C 88% 9.0 mph SSE14.5 kmh SSE 15.0 mph24.1 kmh 29.37 in994.6 mb 0.00 in0.0 mm 0.00 in0.0 mm 0.00 in0.0 mm
03:40 AM 52.3°F11.3°C 48.9°F9.4°C 88% 9.0 mph S14.5 kmh S 15.0 mph24.1 kmh 29.37 in994.6 mb 0.00 in0.0 mm 0.00 in0.0 mm 0.00 in0.0 mm
03:42 AM 52.3°F11.3°C 48.9°F9.4°C 88% 10.0 mph SSE16.1 kmh SSE 16.0 mph25.7 kmh 29.36 in994.2 mb 0.00 in0.0 mm 0.00 in0.0 mm 0.00 in0.0 mm
03:44 AM 52.2°F11.2°C 48.4°F9.1°C 87% 10.0 mph S16.1 kmh S 17.0 mph27.4 kmh 29.37 in994.6 mb 0.00 in0.0 mm 0.00 in0.0 mm 0.00 in0.0 mm
03:46 AM 52.1°F11.2°C 48.3°F9.1°C 87% 11.0 mph S17.7 kmh S 17.0 mph27.4 kmh 29.36 in994.2 mb 0.00 in0.0 mm 0.00 in0.0 mm 0.00 in0.0 mm
03:48 AM 52.0°F11.1°C 48.3°F9.1°C 87% 11.0 mph S17.7 kmh S 17.0 mph27.4 kmh 29.36 in994.2 mb 0.00 in0.0 mm 0.00 in0.0 mm 0.00 in0.0 mm
03:50 AM 52.0°F11.1°C 47.9°F8.8°C 86% 12.0 mph S19.3 kmh S 21.0 mph33.8 kmh 29.36 in994.2 mb 0.00 in0.0 mm 0.00 in0.0 mm 0.00 in0.0 mm
03:52 AM 52.1°F11.2°C 48.0°F8.9°C 86% 13.0 mph S20.9 kmh S 21.0 mph33.8 kmh 29.36 in994.2 mb 0.00 in0.0 mm 0.00 in0.0 mm 0.00 in0.0 mm
03:54 AM 52.1°F11.2°C 48.0°F8.9°C 86% 13.0 mph S20.9 kmh S 21.0 mph33.8 kmh 29.36 in994.2 mb 0.00 in0.0 mm 0.00 in0.0 mm 0.00 in0.0 mm
03:56 AM 52.0°F11.1°C 47.6°F8.7°C 85% 13.0 mph S20.9 kmh S 21.0 mph33.8 kmh 29.36 in994.2 mb 0.00 in0.0 mm 0.00 in0.0 mm 0.00 in0.0 mm
03:58 AM 51.9°F11.1°C 47.8°F8.8°C 86% 14.0 mph S22.5 kmh S 21.0 mph33.8 kmh 29.36 in994.2 mb 0.00 in0.0 mm 0.00 in0.0 mm 0.00 in0.0 mm
04:00 AM 51.8°F11.0°C 47.4°F8.6°C 85% 14.0 mph S22.5 kmh S 21.0 mph33.8 kmh 29.36 in994.2 mb 0.00 in0.0 mm 0.00 in0.0 mm 0.00 in0.0 mm
04:02 AM 51.7°F10.9°C 47.6°F8.7°C 86% 14.0 mph S22.5 kmh S 21.0 mph33.8 kmh 29.36 in994.2 mb 0.00 in0.0 mm 0.00 in0.0 mm 0.00 in0.0 mm
04:04 AM 51.6°F10.9°C 47.5°F8.6°C 86% 14.0 mph S22.5 kmh S 21.0 mph33.8 kmh 29.36 in994.2 mb 0.00 in0.0 mm 0.00 in0.0 mm 0.00 in0.0 mm
04:06 AM 51.6°F10.9°C 47.5°F8.6°C 86% 14.0 mph S22.5 kmh S 21.0 mph33.8 kmh 29.36 in994.2 mb 0.00 in0.0 mm 0.00 in0.0 mm 0.00 in0.0 mm
04:08 AM 51.6°F10.9°C 47.5°F8.6°C 86% 14.0 mph S22.5 kmh S 19.0 mph30.6 kmh 29.36 in994.2 mb 0.00 in0.0 mm 0.00 in0.0 mm 0.00 in0.0 mm
04:10 AM 51.5°F10.8°C 47.5°F8.6°C 86% 14.0 mph S22.5 kmh S 20.0 mph32.2 kmh 29.36 in994.2 mb 0.00 in0.0 mm 0.00 in0.0 mm 0.00 in0.0 mm
04:12 AM 51.4°F10.8°C 47.4°F8.6°C 86% 14.0 mph S22.5 kmh S 20.0 mph32.2 kmh 29.36 in994.2 mb 0.00 in0.0 mm 0.00 in0.0 mm 0.00 in0.0 mm
04:14 AM 51.3°F10.7°C 47.3°F8.5°C 86% 14.0 mph S22.5 kmh S 20.0 mph32.2 kmh 29.36 in994.2 mb 0.00 in0.0 mm 0.00 in0.0 mm 0.00 in0.0 mm
04:16 AM 51.1°F10.6°C 47.1°F8.4°C 86% 14.0 mph S22.5 kmh S 20.0 mph32.2 kmh 29.36 in994.2 mb 0.00 in0.0 mm 0.00 in0.0 mm 0.00 in0.0 mm
04:18 AM 51.0°F10.6°C 47.0°F8.3°C 86% 14.0 mph S22.5 kmh S 20.0 mph32.2 kmh 29.36 in994.2 mb 0.00 in0.0 mm 0.00 in0.0 mm 0.00 in0.0 mm
04:20 AM 50.9°F10.5°C 46.9°F8.3°C 86% 13.0 mph S20.9 kmh S 19.0 mph30.6 kmh 29.36 in994.2 mb 0.00 in0.0 mm 0.00 in0.0 mm 0.00 in0.0 mm
04:22 AM 50.9°F10.5°C 46.9°F8.3°C 86% 13.0 mph S20.9 kmh S 19.0 mph30.6 kmh 29.36 in994.2 mb 0.00 in0.0 mm 0.00 in0.0 mm 0.00 in0.0 mm
04:24 AM 50.8°F10.4°C 46.8°F8.2°C 86% 14.0 mph S22.5 kmh S 19.0 mph30.6 kmh 29.36 in994.2 mb 0.00 in0.0 mm 0.00 in0.0 mm 0.00 in0.0 mm
04:26 AM 50.7°F10.4°C 46.7°F8.2°C 86% 13.0 mph S20.9 kmh S 19.0 mph30.6 kmh 29.36 in994.2 mb 0.00 in0.0 mm 0.00 in0.0 mm 0.00 in0.0 mm
04:28 AM 50.5°F10.3°C 46.5°F8.1°C 86% 13.0 mph S20.9 kmh S 19.0 mph30.6 kmh 29.36 in994.2 mb 0.00 in0.0 mm 0.00 in0.0 mm 0.00 in0.0 mm
04:30 AM 50.4°F10.2°C 46.4°F8.0°C 86% 13.0 mph S20.9 kmh S 18.0 mph29.0 kmh 29.36 in994.2 mb 0.00 in0.0 mm 0.00 in0.0 mm 0.00 in0.0 mm
04:32 AM 50.3°F10.2°C 46.3°F7.9°C 86% 13.0 mph S20.9 kmh S 17.0 mph27.4 kmh 29.36 in994.2 mb 0.00 in0.0 mm 0.00 in0.0 mm 0.00 in0.0 mm
04:34 AM 50.4°F10.2°C 46.4°F8.0°C 86% 13.0 mph S20.9 kmh S 19.0 mph30.6 kmh 29.36 in994.2 mb 0.00 in0.0 mm 0.00 in0.0 mm 0.00 in0.0 mm
04:36 AM 50.4°F10.2°C 46.4°F8.0°C 86% 13.0 mph S20.9 kmh S 19.0 mph30.6 kmh 29.36 in994.2 mb 0.00 in0.0 mm 0.00 in0.0 mm 0.00 in0.0 mm
04:38 AM 50.3°F10.2°C 46.3°F7.9°C 86% 14.0 mph S22.5 kmh S 19.0 mph30.6 kmh 29.36 in994.2 mb 0.00 in0.0 mm 0.00 in0.0 mm 0.00 in0.0 mm
04:40 AM 50.3°F10.2°C 46.0°F7.8°C 85% 14.0 mph S22.5 kmh S 24.0 mph38.6 kmh 29.36 in994.2 mb 0.00 in0.0 mm 0.00 in0.0 mm 0.00 in0.0 mm
04:42 AM 50.4°F10.2°C 45.7°F7.6°C 84% 15.0 mph S24.1 kmh S 24.0 mph38.6 kmh 29.36 in994.2 mb 0.00 in0.0 mm 0.00 in0.0 mm 0.00 in0.0 mm
04:44 AM 50.4°F10.2°C 45.4°F7.4°C 83% 16.0 mph S25.7 kmh S 24.0 mph38.6 kmh 29.36 in994.2 mb 0.00 in0.0 mm 0.00 in0.0 mm 0.00 in0.0 mm
04:46 AM 50.3°F10.2°C 45.3°F7.4°C 83% 16.0 mph SSW25.7 kmh SSW 24.0 mph38.6 kmh 29.36 in994.2 mb 0.00 in0.0 mm 0.00 in0.0 mm 0.00 in0.0 mm
04:48 AM 50.1°F10.1°C 45.1°F7.3°C 83% 16.0 mph SSW25.7 kmh SSW 24.0 mph38.6 kmh 29.36 in994.2 mb 0.00 in0.0 mm 0.00 in0.0 mm 0.00 in0.0 mm
04:50 AM 50.0°F10.0°C 44.7°F7.1°C 82% 17.0 mph SSW27.4 kmh SSW 29.0 mph46.7 kmh 29.37 in994.6 mb 0.00 in0.0 mm 0.00 in0.0 mm 0.00 in0.0 mm
04:52 AM 50.0°F10.0°C 44.7°F7.1°C 82% 17.0 mph SSW27.4 kmh SSW 29.0 mph46.7 kmh 29.37 in994.6 mb 0.00 in0.0 mm 0.00 in0.0 mm 0.00 in0.0 mm
04:54 AM 49.9°F9.9°C 44.3°F6.8°C 81% 18.0 mph SSW29.0 kmh SSW 29.0 mph46.7 kmh 29.37 in994.6 mb 0.00 in0.0 mm 0.00 in0.0 mm 0.00 in0.0 mm
04:56 AM 50.0°F10.0°C 44.1°F6.7°C 80% 19.0 mph SSW30.6 kmh SSW 35.0 mph56.3 kmh 29.37 in994.6 mb 0.00 in0.0 mm 0.00 in0.0 mm 0.00 in0.0 mm
04:58 AM 49.9°F9.9°C 44.0°F6.7°C 80% 20.0 mph SSW32.2 kmh SSW 41.0 mph66.0 kmh 29.38 in994.9 mb 0.00 in0.0 mm 0.00 in0.0 mm 0.00 in0.0 mm
05:00 AM 49.9°F9.9°C 43.6°F6.4°C 79% 22.0 mph SSW35.4 kmh SSW 41.0 mph66.0 kmh 29.38 in994.9 mb 0.00 in0.0 mm 0.00 in0.0 mm 0.00 in0.0 mm
05:02 AM 49.6°F9.8°C 43.4°F6.3°C 79% 23.0 mph SSW37.0 kmh SSW 41.0 mph66.0 kmh 29.39 in995.3 mb 0.00 in0.0 mm 0.00 in0.0 mm 0.00 in0.0 mm
05:04 AM 49.2°F9.6°C 43.0°F6.1°C 79% 24.0 mph SW38.6 kmh SW 41.0 mph66.0 kmh 29.39 in995.3 mb 0.00 in0.0 mm 0.00 in0.0 mm 0.00 in0.0 mm
05:06 AM 48.5°F9.2°C 42.0°F5.6°C 78% 25.0 mph SW40.2 kmh SW 41.0 mph66.0 kmh 29.39 in995.3 mb 0.00 in0.0 mm 0.00 in0.0 mm 0.00 in0.0 mm
05:08 AM 47.8°F8.8°C 41.6°F5.3°C 79% 25.0 mph SW40.2 kmh SW 37.0 mph59.5 kmh 29.39 in995.3 mb 0.00 in0.0 mm 0.00 in0.0 mm 0.00 in0.0 mm
05:10 AM 47.2°F8.4°C 41.3°F5.2°C 80% 25.0 mph SW40.2 kmh SW 36.0 mph57.9 kmh 29.39 in995.3 mb 0.00 in0.0 mm 0.00 in0.0 mm 0.00 in0.0 mm
05:12 AM 46.7°F8.2°C 40.9°F4.9°C 80% 25.0 mph SW40.2 kmh SW 36.0 mph57.9 kmh 29.40 in995.6 mb 0.00 in0.0 mm 0.00 in0.0 mm 0.00 in0.0 mm
05:14 AM 46.4°F8.0°C 40.9°F4.9°C 81% 25.0 mph SW40.2 kmh SW 36.0 mph57.9 kmh 29.40 in995.6 mb 0.00 in0.0 mm 0.00 in0.0 mm 0.00 in0.0 mm
05:16 AM 46.1°F7.8°C 40.9°F4.9°C 82% 25.0 mph SW40.2 kmh SW 36.0 mph57.9 kmh 29.40 in995.6 mb 0.00 in0.0 mm 0.00 in0.0 mm 0.00 in0.0 mm
05:18 AM 45.8°F7.7°C 40.6°F4.8°C 82% 24.0 mph SW38.6 kmh SW 34.0 mph54.7 kmh 29.40 in995.6 mb 0.00 in0.0 mm 0.00 in0.0 mm 0.00 in0.0 mm
05:20 AM 45.6°F7.6°C 40.7°F4.8°C 83% 24.0 mph SW38.6 kmh SW 35.0 mph56.3 kmh 29.40 in995.6 mb 0.00 in0.0 mm 0.00 in0.0 mm 0.00 in0.0 mm
05:22 AM 45.6°F7.6°C 40.7°F4.8°C 83% 25.0 mph SW40.2 kmh SW 37.0 mph59.5 kmh 29.40 in995.6 mb 0.00 in0.0 mm 0.00 in0.0 mm 0.00 in0.0 mm
05:24 AM 45.5°F7.5°C 40.6°F4.8°C 83% 24.0 mph SW38.6 kmh SW 37.0 mph59.5 kmh 29.40 in995.6 mb 0.00 in0.0 mm 0.00 in0.0 mm 0.00 in0.0 mm
05:26 AM 45.4°F7.4°C 40.5°F4.7°C 83% 24.0 mph SW38.6 kmh SW 37.0 mph59.5 kmh 29.40 in995.6 mb 0.00 in0.0 mm 0.00 in0.0 mm 0.00 in0.0 mm
05:28 AM 45.3°F7.4°C 40.7°F4.8°C 84% 24.0 mph SW38.6 kmh SW 37.0 mph59.5 kmh 29.40 in995.6 mb 0.00 in0.0 mm 0.00 in0.0 mm 0.00 in0.0 mm
05:30 AM 45.2°F7.3°C 40.7°F4.8°C 84% 24.0 mph SW38.6 kmh SW 37.0 mph59.5 kmh 29.40 in995.6 mb 0.00 in0.0 mm 0.00 in0.0 mm 0.00 in0.0 mm
05:32 AM 45.2°F7.3°C 40.7°F4.8°C 84% 24.0 mph SW38.6 kmh SW 35.0 mph56.3 kmh 29.41 in995.9 mb 0.00 in0.0 mm 0.00 in0.0 mm 0.00 in0.0 mm
05:34 AM 45.2°F7.3°C 40.7°F4.8°C 84% 24.0 mph SW38.6 kmh SW 35.0 mph56.3 kmh 29.41 in995.9 mb 0.00 in0.0 mm 0.00 in0.0 mm 0.00 in0.0 mm
05:36 AM 45.2°F7.3°C 40.7°F4.8°C 84% 24.0 mph SW38.6 kmh SW 35.0 mph56.3 kmh 29.41 in995.9 mb 0.00 in0.0 mm 0.00 in0.0 mm 0.00 in0.0 mm
05:38 AM 45.1°F7.3°C 40.6°F4.8°C 84% 24.0 mph SW38.6 kmh SW 35.0 mph56.3 kmh 29.41 in995.9 mb 0.00 in0.0 mm 0.00 in0.0 mm 0.00 in0.0 mm
05:40 AM 45.1°F7.3°C 40.9°F4.9°C 85% 24.0 mph SW38.6 kmh SW 37.0 mph59.5 kmh 29.41 in995.9 mb 0.00 in0.0 mm 0.00 in0.0 mm 0.00 in0.0 mm
05:42 AM 45.3°F7.4°C 41.1°F5.1°C 85% 24.0 mph SW38.6 kmh SW 37.0 mph59.5 kmh 29.42 in996.3 mb 0.00 in0.0 mm 0.00 in0.0 mm 0.00 in0.0 mm
05:44 AM 45.4°F7.4°C 41.2°F5.1°C 85% 24.0 mph SW38.6 kmh SW 37.0 mph59.5 kmh 29.42 in996.3 mb 0.00 in0.0 mm 0.00 in0.0 mm 0.00 in0.0 mm
05:46 AM 45.5°F7.5°C 41.3°F5.2°C 85% 24.0 mph SW38.6 kmh SW 37.0 mph59.5 kmh 29.41 in995.9 mb 0.00 in0.0 mm 0.00 in0.0 mm 0.00 in0.0 mm
05:48 AM 45.5°F7.5°C 41.3°F5.2°C 85% 24.0 mph SW38.6 kmh SW 37.0 mph59.5 kmh 29.42 in996.3 mb 0.00 in0.0 mm 0.00 in0.0 mm 0.00 in0.0 mm
05:50 AM 45.5°F7.5°C 41.3°F5.2°C 85% 23.0 mph SW37.0 kmh SW 35.0 mph56.3 kmh 29.42 in996.3 mb 0.00 in0.0 mm 0.00 in0.0 mm 0.00 in0.0 mm
05:52 AM 45.5°F7.5°C 41.3°F5.2°C 85% 23.0 mph SW37.0 kmh SW 32.0 mph51.5 kmh 29.42 in996.3 mb 0.00 in0.0 mm 0.00 in0.0 mm 0.00 in0.0 mm
05:54 AM 45.5°F7.5°C 41.3°F5.2°C 85% 22.0 mph SW35.4 kmh SW 32.0 mph51.5 kmh 29.42 in996.3 mb 0.00 in0.0 mm 0.00 in0.0 mm 0.00 in0.0 mm
05:56 AM 45.4°F7.4°C 41.5°F5.3°C 86% 21.0 mph SW33.8 kmh SW 32.0 mph51.5 kmh 29.42 in996.3 mb 0.00 in0.0 mm 0.00 in0.0 mm 0.00 in0.0 mm
05:58 AM 45.3°F7.4°C 41.1°F5.1°C 85% 20.0 mph SW32.2 kmh SW 31.0 mph49.9 kmh 29.42 in996.3 mb 0.00 in0.0 mm 0.00 in0.0 mm 0.00 in0.0 mm
06:00 AM 45.2°F7.3°C 41.3°F5.2°C 86% 19.0 mph SW30.6 kmh SW 28.0 mph45.1 kmh 29.43 in996.6 mb 0.00 in0.0 mm 0.00 in0.0 mm 0.00 in0.0 mm
06:02 AM 45.2°F7.3°C 41.0°F5.0°C 85% 19.0 mph SW30.6 kmh SW 27.0 mph43.5 kmh 29.43 in996.6 mb 0.00 in0.0 mm 0.00 in0.0 mm 0.00 in0.0 mm
06:04 AM 45.1°F7.3°C 40.9°F4.9°C 85% 18.0 mph SW29.0 kmh SW 27.0 mph43.5 kmh 29.43 in996.6 mb 0.00 in0.0 mm 0.00 in0.0 mm 0.00 in0.0 mm
06:06 AM 45.1°F7.3°C 40.9°F4.9°C 85% 18.0 mph SW29.0 kmh SW 27.0 mph43.5 kmh 29.43 in996.6 mb 0.00 in0.0 mm 0.00 in0.0 mm 0.00 in0.0 mm
06:08 AM 45.1°F7.3°C 41.2°F5.1°C 86% 18.0 mph SW29.0 kmh SW 26.0 mph41.8 kmh 29.43 in996.6 mb 0.00 in0.0 mm 0.00 in0.0 mm 0.00 in0.0 mm
06:10 AM 45.1°F7.3°C 41.2°F5.1°C 86% 19.0 mph SW30.6 kmh SW 30.0 mph48.3 kmh 29.43 in996.6 mb 0.00 in0.0 mm 0.00 in0.0 mm 0.00 in0.0 mm
06:12 AM 45.1°F7.3°C 41.2°F5.1°C 86% 19.0 mph SW30.6 kmh SW 30.0 mph48.3 kmh 29.43 in996.6 mb 0.00 in0.0 mm 0.00 in0.0 mm 0.00 in0.0 mm
06:14 AM 45.1°F7.3°C 41.2°F5.1°C 86% 20.0 mph SW32.2 kmh SW 30.0 mph48.3 kmh 29.43 in996.6 mb 0.00 in0.0 mm 0.00 in0.0 mm 0.00 in0.0 mm
06:16 AM 45.1°F7.3°C 41.2°F5.1°C 86% 20.0 mph SW32.2 kmh SW 30.0 mph48.3 kmh 29.44 in997.0 mb 0.00 in0.0 mm 0.00 in0.0 mm 0.00 in0.0 mm
06:18 AM 45.2°F7.3°C 41.6°F5.3°C 87% 21.0 mph SW33.8 kmh SW 31.0 mph49.9 kmh 29.44 in997.0 mb 0.00 in0.0 mm 0.00 in0.0 mm 0.00 in0.0 mm
06:20 AM 45.2°F7.3°C 41.6°F5.3°C 87% 21.0 mph SW33.8 kmh SW 31.0 mph49.9 kmh 29.44 in997.0 mb 0.00 in0.0 mm 0.00 in0.0 mm 0.00 in0.0 mm
06:22 AM 45.1°F7.3°C 41.5°F5.3°C 87% 21.0 mph SW33.8 kmh SW 32.0 mph51.5 kmh 29.44 in997.0 mb 0.00 in0.0 mm 0.00 in0.0 mm 0.00 in0.0 mm
06:24 AM 45.1°F7.3°C 41.5°F5.3°C 87% 21.0 mph SW33.8 kmh SW 33.0 mph53.1 kmh 29.44 in997.0 mb 0.00 in0.0 mm 0.00 in0.0 mm 0.00 in0.0 mm
06:26 AM 45.1°F7.3°C 41.5°F5.3°C 87% 22.0 mph SW35.4 kmh SW 33.0 mph53.1 kmh 29.44 in997.0 mb 0.00 in0.0 mm 0.00 in0.0 mm 0.00 in0.0 mm
06:28 AM 45.0°F7.2°C 41.7°F5.4°C 88% 23.0 mph SW37.0 kmh SW 34.0 mph54.7 kmh 29.44 in997.0 mb 0.00 in0.0 mm 0.00 in0.0 mm 0.00 in0.0 mm
06:30 AM 44.9°F7.2°C 41.6°F5.3°C 88% 23.0 mph SW37.0 kmh SW 34.0 mph54.7 kmh 29.45 in997.3 mb 0.00 in0.0 mm 0.00 in0.0 mm 0.00 in0.0 mm
06:32 AM 44.7°F7.1°C 41.4°F5.2°C 88% 24.0 mph SW38.6 kmh SW 35.0 mph56.3 kmh 29.45 in997.3 mb 0.00 in0.0 mm 0.00 in0.0 mm 0.00 in0.0 mm
06:34 AM 44.5°F6.9°C 41.5°F5.3°C 89% 25.0 mph SW40.2 kmh SW 35.0 mph56.3 kmh 29.45 in997.3 mb 0.00 in0.0 mm 0.00 in0.0 mm 0.00 in0.0 mm
06:36 AM 44.3°F6.8°C 41.3°F5.2°C 89% 25.0 mph SW40.2 kmh SW 35.0 mph56.3 kmh 29.45 in997.3 mb 0.00 in0.0 mm 0.00 in0.0 mm 0.00 in0.0 mm
06:38 AM 44.1°F6.7°C 40.8°F4.9°C 88% 25.0 mph SW40.2 kmh SW 37.0 mph59.5 kmh 29.45 in997.3 mb 0.00 in0.0 mm 0.00 in0.0 mm 0.00 in0.0 mm
06:40 AM 44.0°F6.7°C 41.0°F5.0°C 89% 25.0 mph SW40.2 kmh SW 37.0 mph59.5 kmh 29.45 in997.3 mb 0.00 in0.0 mm 0.00 in0.0 mm 0.00 in0.0 mm
06:42 AM 43.8°F6.6°C 40.5°F4.7°C 88% 25.0 mph SW40.2 kmh SW 37.0 mph59.5 kmh 29.45 in997.3 mb 0.00 in0.0 mm 0.00 in0.0 mm 0.00 in0.0 mm
06:44 AM 43.7°F6.5°C 40.4°F4.7°C 88% 26.0 mph SW41.8 kmh SW 37.0 mph59.5 kmh 29.45 in997.3 mb 0.00 in0.0 mm 0.00 in0.0 mm 0.00 in0.0 mm
06:46 AM 43.6°F6.4°C 40.3°F4.6°C 88% 26.0 mph SW41.8 kmh SW 37.0 mph59.5 kmh 29.46 in997.6 mb 0.00 in0.0 mm 0.00 in0.0 mm 0.00 in0.0 mm
06:48 AM 43.5°F6.4°C 40.2°F4.6°C 88% 27.0 mph SW43.5 kmh SW 37.0 mph59.5 kmh 29.46 in997.6 mb 0.00 in0.0 mm 0.00 in0.0 mm 0.00 in0.0 mm
06:50 AM 43.4°F6.3°C 40.1°F4.5°C 88% 27.0 mph SW43.5 kmh SW 37.0 mph59.5 kmh 29.46 in997.6 mb 0.00 in0.0 mm 0.00 in0.0 mm 0.00 in0.0 mm
06:52 AM 43.4°F6.3°C 40.1°F4.5°C 88% 27.0 mph SW43.5 kmh SW 43.0 mph69.2 kmh 29.46 in997.6 mb 0.00 in0.0 mm 0.00 in0.0 mm 0.00 in0.0 mm
06:54 AM 43.3°F6.3°C 40.0°F4.4°C 88% 27.0 mph SW43.5 kmh SW 43.0 mph69.2 kmh 29.47 in998.0 mb 0.00 in0.0 mm 0.00 in0.0 mm 0.00 in0.0 mm
06:56 AM 43.3°F6.3°C 40.3°F4.6°C 89% 26.0 mph SW41.8 kmh SW 43.0 mph69.2 kmh 29.47 in998.0 mb 0.00 in0.0 mm 0.00 in0.0 mm 0.00 in0.0 mm
06:58 AM 43.2°F6.2°C 39.9°F4.4°C 88% 25.0 mph SW40.2 kmh SW 43.0 mph69.2 kmh 29.47 in998.0 mb 0.00 in0.0 mm 0.00 in0.0 mm 0.00 in0.0 mm
07:00 AM 43.2°F6.2°C 39.9°F4.4°C 88% 26.0 mph SW41.8 kmh SW 43.0 mph69.2 kmh 29.47 in998.0 mb 0.00 in0.0 mm 0.00 in0.0 mm 0.00 in0.0 mm
07:02 AM 43.2°F6.2°C 39.9°F4.4°C 88% 25.0 mph SW40.2 kmh SW 36.0 mph57.9 kmh 29.47 in998.0 mb 0.00 in0.0 mm 0.00 in0.0 mm 0.00 in0.0 mm
07:04 AM 43.2°F6.2°C 39.9°F4.4°C 88% 25.0 mph SW40.2 kmh SW 34.0 mph54.7 kmh 29.48 in998.3 mb 0.00 in0.0 mm 0.00 in0.0 mm 0.00 in0.0 mm
07:06 AM 43.2°F6.2°C 39.9°F4.4°C 88% 26.0 mph SW41.8 kmh SW 39.0 mph62.8 kmh 29.48 in998.3 mb 0.00 in0.0 mm 0.00 in0.0 mm 0.00 in0.0 mm
07:08 AM 43.1°F6.2°C 39.8°F4.3°C 88% 26.0 mph SW41.8 kmh SW 39.0 mph62.8 kmh 29.48 in998.3 mb 0.00 in0.0 mm 0.00 in0.0 mm 0.00 in0.0 mm
07:10 AM 43.1°F6.2°C 39.5°F4.2°C 87% 26.0 mph SW41.8 kmh SW 40.0 mph64.4 kmh 29.48 in998.3 mb 0.00 in0.0 mm 0.00 in0.0 mm 0.00 in0.0 mm
07:12 AM 43.1°F6.2°C 39.5°F4.2°C 87% 27.0 mph SW43.5 kmh SW 40.0 mph64.4 kmh 29.48 in998.3 mb 0.00 in0.0 mm 0.00 in0.0 mm 0.00 in0.0 mm
07:14 AM 43.0°F6.1°C 39.4°F4.1°C 87% 26.0 mph SW41.8 kmh SW 40.0 mph64.4 kmh 29.49 in998.6 mb 0.00 in0.0 mm 0.00 in0.0 mm 0.00 in0.0 mm
07:18 AM 43.0°F6.1°C 39.1°F3.9°C 86% 26.0 mph SW41.8 kmh SW 26.0 mph41.8 kmh 29.49 in998.6 mb 0.00 in0.0 mm 0.00 in0.0 mm 0.00 in0.0 mm
07:20 AM 43.0°F6.1°C 39.1°F3.9°C 86% 26.0 mph SW41.8 kmh SW 26.0 mph41.8 kmh 29.49 in998.6 mb 0.00 in0.0 mm 0.00 in0.0 mm 0.38 in9.7 mm
07:22 AM 43.0°F6.1°C 38.8°F3.8°C 85% 27.0 mph SW43.5 kmh SW 38.0 mph61.2 kmh 29.50 in999.0 mb 0.00 in0.0 mm 0.00 in0.0 mm 0.38 in9.7 mm
07:24 AM 43.0°F6.1°C 39.1°F3.9°C 86% 28.0 mph SW45.1 kmh SW 38.0 mph61.2 kmh 29.50 in999.0 mb 0.00 in0.0 mm 0.00 in0.0 mm 0.38 in9.7 mm
07:26 AM 42.9°F6.1°C 39.0°F3.9°C 86% 28.0 mph SW45.1 kmh SW 38.0 mph61.2 kmh 29.50 in999.0 mb 0.00 in0.0 mm 0.00 in0.0 mm 0.38 in9.7 mm
07:28 AM 42.9°F6.1°C 39.0°F3.9°C 86% 27.0 mph SW43.5 kmh SW 38.0 mph61.2 kmh 29.50 in999.0 mb 0.00 in0.0 mm 0.00 in0.0 mm 0.38 in9.7 mm
07:30 AM 42.8°F6.0°C 38.9°F3.8°C 86% 27.0 mph SW43.5 kmh SW 38.0 mph61.2 kmh 29.51 in999.3 mb 0.00 in0.0 mm 0.00 in0.0 mm 0.38 in9.7 mm
07:32 AM 42.8°F6.0°C 38.9°F3.8°C 86% 25.0 mph SW40.2 kmh SW 38.0 mph61.2 kmh 29.50 in999.0 mb 0.00 in0.0 mm 0.00 in0.0 mm 0.38 in9.7 mm
07:34 AM 42.7°F5.9°C 39.1°F3.9°C 87% 25.0 mph SW40.2 kmh SW 36.0 mph57.9 kmh 29.51 in999.3 mb 0.00 in0.0 mm 0.00 in0.0 mm 0.38 in9.7 mm
07:36 AM 42.7°F5.9°C 39.1°F3.9°C 87% 24.0 mph SW38.6 kmh SW 34.0 mph54.7 kmh 29.51 in999.3 mb 0.00 in0.0 mm 0.00 in0.0 mm 0.38 in9.7 mm
07:38 AM 42.6°F5.9°C 39.0°F3.9°C 87% 24.0 mph SW38.6 kmh SW 34.0 mph54.7 kmh 29.52 in999.7 mb 0.00 in0.0 mm 0.00 in0.0 mm 0.38 in9.7 mm
07:40 AM 42.4°F5.8°C 38.8°F3.8°C 87% 24.0 mph SW38.6 kmh SW 38.0 mph61.2 kmh 29.52 in999.7 mb 0.00 in0.0 mm 0.00 in0.0 mm 0.38 in9.7 mm
07:42 AM 42.2°F5.7°C 38.9°F3.8°C 88% 25.0 mph SW40.2 kmh SW 38.0 mph61.2 kmh 29.52 in999.7 mb 0.00 in0.0 mm 0.00 in0.0 mm 0.38 in9.7 mm
07:44 AM 42.1°F5.6°C 38.8°F3.8°C 88% 25.0 mph SW40.2 kmh SW 38.0 mph61.2 kmh 29.52 in999.7 mb 0.00 in0.0 mm 0.00 in0.0 mm 0.38 in9.7 mm
07:46 AM 42.0°F5.6°C 38.7°F3.7°C 88% 25.0 mph SW40.2 kmh SW 38.0 mph61.2 kmh 29.52 in999.7 mb 0.00 in0.0 mm 0.00 in0.0 mm 0.38 in9.7 mm
07:48 AM 41.9°F5.5°C 38.9°F3.8°C 89% 25.0 mph SW40.2 kmh SW 38.0 mph61.2 kmh 29.52 in999.7 mb 0.00 in0.0 mm 0.00 in0.0 mm 0.38 in9.7 mm
07:50 AM 41.8°F5.4°C 38.8°F3.8°C 89% 24.0 mph SW38.6 kmh SW 34.0 mph54.7 kmh 29.53 in1000.0 mb 0.00 in0.0 mm 0.00 in0.0 mm 0.38 in9.7 mm
07:52 AM 41.6°F5.3°C 38.6°F3.7°C 89% 24.0 mph SW38.6 kmh SW 34.0 mph54.7 kmh 29.53 in1000.0 mb 0.00 in0.0 mm 0.00 in0.0 mm 0.38 in9.7 mm
07:54 AM 41.5°F5.3°C 38.5°F3.6°C 89% 24.0 mph SW38.6 kmh SW 33.0 mph53.1 kmh 29.53 in1000.0 mb 0.00 in0.0 mm 0.00 in0.0 mm 0.38 in9.7 mm
07:56 AM 41.4°F5.2°C 38.4°F3.6°C 89% 24.0 mph SW38.6 kmh SW 34.0 mph54.7 kmh 29.53 in1000.0 mb 0.00 in0.0 mm 0.00 in0.0 mm 0.38 in9.7 mm
07:58 AM 41.4°F5.2°C 38.4°F3.6°C 89% 25.0 mph SW40.2 kmh SW 37.0 mph59.5 kmh 29.53 in1000.0 mb 0.00 in0.0 mm 0.00 in0.0 mm 0.38 in9.7 mm
08:00 AM 41.3°F5.2°C 38.3°F3.5°C 89% 25.0 mph SW40.2 kmh SW 37.0 mph59.5 kmh 29.54 in1000.3 mb 0.00 in0.0 mm 0.00 in0.0 mm 0.38 in9.7 mm
08:02 AM 41.3°F5.2°C 38.3°F3.5°C 89% 24.0 mph SW38.6 kmh SW 37.0 mph59.5 kmh 29.53 in1000.0 mb 0.00 in0.0 mm 0.00 in0.0 mm 0.38 in9.7 mm
08:04 AM 41.2°F5.1°C 38.2°F3.4°C 89% 23.0 mph SW37.0 kmh SW 37.0 mph59.5 kmh 29.53 in1000.0 mb 0.00 in0.0 mm 0.00 in0.0 mm 0.38 in9.7 mm
08:06 AM 41.2°F5.1°C 37.9°F3.3°C 88% 24.0 mph SW38.6 kmh SW 37.0 mph59.5 kmh 29.54 in1000.3 mb 0.00 in0.0 mm 0.00 in0.0 mm 0.38 in9.7 mm
08:08 AM 41.2°F5.1°C 37.9°F3.3°C 88% 24.0 mph SW38.6 kmh SW 35.0 mph56.3 kmh 29.54 in1000.3 mb 0.00 in0.0 mm 0.00 in0.0 mm 0.38 in9.7 mm
08:10 AM 41.2°F5.1°C 37.9°F3.3°C 88% 25.0 mph SW40.2 kmh SW 36.0 mph57.9 kmh 29.54 in1000.3 mb 0.00 in0.0 mm 0.00 in0.0 mm 0.38 in9.7 mm
08:12 AM 41.2°F5.1°C 37.6°F3.1°C 87% 25.0 mph SW40.2 kmh SW 39.0 mph62.8 kmh 29.55 in1000.7 mb 0.00 in0.0 mm 0.00 in0.0 mm 0.38 in9.7 mm
08:14 AM 41.2°F5.1°C 37.6°F3.1°C 87% 26.0 mph SW41.8 kmh SW 39.0 mph62.8 kmh 29.55 in1000.7 mb 0.00 in0.0 mm 0.00 in0.0 mm 0.38 in9.7 mm
08:16 AM 41.1°F5.1°C 37.8°F3.2°C 88% 25.0 mph SW40.2 kmh SW 39.0 mph62.8 kmh 29.55 in1000.7 mb 0.00 in0.0 mm 0.00 in0.0 mm 0.38 in9.7 mm
08:18 AM 41.1°F5.1°C 37.8°F3.2°C 88% 24.0 mph SW38.6 kmh SW 39.0 mph62.8 kmh 29.55 in1000.7 mb 0.00 in0.0 mm 0.00 in0.0 mm 0.38 in9.7 mm
08:20 AM 41.0°F5.0°C 37.7°F3.2°C 88% 23.0 mph SW37.0 kmh SW 39.0 mph62.8 kmh 29.55 in1000.7 mb 0.00 in0.0 mm 0.00 in0.0 mm 0.38 in9.7 mm
08:22 AM 41.0°F5.0°C 37.7°F3.2°C 88% 23.0 mph SW37.0 kmh SW 32.0 mph51.5 kmh 29.55 in1000.7 mb 0.00 in0.0 mm 0.00 in0.0 mm 0.38 in9.7 mm
08:24 AM 40.9°F4.9°C 37.9°F3.3°C 89% 22.0 mph SW35.4 kmh SW 32.0 mph51.5 kmh 29.55 in1000.7 mb 0.00 in0.0 mm 0.00 in0.0 mm 0.38 in9.7 mm
08:26 AM 40.9°F4.9°C 37.9°F3.3°C 89% 22.0 mph SW35.4 kmh SW 32.0 mph51.5 kmh 29.55 in1000.7 mb 0.00 in0.0 mm 0.00 in0.0 mm 0.38 in9.7 mm
08:28 AM 40.8°F4.9°C 37.8°F3.2°C 89% 22.0 mph SW35.4 kmh SW 32.0 mph51.5 kmh 29.56 in1001.0 mb 0.00 in0.0 mm 0.00 in0.0 mm 0.38 in9.7 mm
08:30 AM 40.7°F4.8°C 37.7°F3.2°C 89% 21.0 mph SW33.8 kmh SW 32.0 mph51.5 kmh 29.56 in1001.0 mb 0.00 in0.0 mm 0.00 in0.0 mm 0.38 in9.7 mm
08:32 AM 40.6°F4.8°C 37.6°F3.1°C 89% 21.0 mph SW33.8 kmh SW 29.0 mph46.7 kmh 29.56 in1001.0 mb 0.00 in0.0 mm 0.00 in0.0 mm 0.38 in9.7 mm
08:34 AM 40.5°F4.7°C 37.8°F3.2°C 90% 21.0 mph SW33.8 kmh SW 29.0 mph46.7 kmh 29.56 in1001.0 mb 0.00 in0.0 mm 0.00 in0.0 mm 0.38 in9.7 mm
08:36 AM 40.4°F4.7°C 37.7°F3.2°C 90% 21.0 mph SW33.8 kmh SW 29.0 mph46.7 kmh 29.57 in1001.4 mb 0.00 in0.0 mm 0.00 in0.0 mm 0.38 in9.7 mm
08:38 AM 40.4°F4.7°C 37.7°F3.2°C 90% 20.0 mph SW32.2 kmh SW 29.0 mph46.7 kmh 29.57 in1001.4 mb 0.00 in0.0 mm 0.00 in0.0 mm 0.38 in9.7 mm
08:40 AM 40.4°F4.7°C 37.7°F3.2°C 90% 20.0 mph SW32.2 kmh SW 29.0 mph46.7 kmh 29.57 in1001.4 mb 0.00 in0.0 mm 0.00 in0.0 mm 0.38 in9.7 mm
08:42 AM 40.3°F4.6°C 37.3°F2.9°C 89% 20.0 mph SW32.2 kmh SW 32.0 mph51.5 kmh 29.57 in1001.4 mb 0.00 in0.0 mm 0.00 in0.0 mm 0.38 in9.7 mm
08:44 AM 40.2°F4.6°C 36.9°F2.7°C 88% 21.0 mph SW33.8 kmh SW 32.0 mph51.5 kmh 29.57 in1001.4 mb 0.00 in0.0 mm 0.00 in0.0 mm 0.38 in9.7 mm
08:46 AM 40.3°F4.6°C 37.0°F2.8°C 88% 21.0 mph WSW33.8 kmh WSW 32.0 mph51.5 kmh 29.57 in1001.4 mb 0.00 in0.0 mm 0.00 in0.0 mm 0.38 in9.7 mm
08:48 AM 40.2°F4.6°C 36.9°F2.7°C 88% 22.0 mph WSW35.4 kmh WSW 32.0 mph51.5 kmh 29.57 in1001.4 mb 0.00 in0.0 mm 0.00 in0.0 mm 0.38 in9.7 mm
08:50 AM 40.2°F4.6°C 36.9°F2.7°C 88% 24.0 mph WSW38.6 kmh WSW 35.0 mph56.3 kmh 29.58 in1001.7 mb 0.00 in0.0 mm 0.00 in0.0 mm 0.38 in9.7 mm
08:52 AM 40.1°F4.5°C 36.5°F2.5°C 87% 24.0 mph SW38.6 kmh SW 35.0 mph56.3 kmh 29.58 in1001.7 mb 0.00 in0.0 mm 0.00 in0.0 mm 0.38 in9.7 mm
08:54 AM 39.9°F4.4°C 36.3°F2.4°C 87% 25.0 mph SW40.2 kmh SW 38.0 mph61.2 kmh 29.59 in1002.0 mb 0.00 in0.0 mm 0.00 in0.0 mm 0.38 in9.7 mm
08:56 AM 39.8°F4.3°C 36.0°F2.2°C 86% 26.0 mph SW41.8 kmh SW 38.0 mph61.2 kmh 29.59 in1002.0 mb 0.00 in0.0 mm 0.00 in0.0 mm 0.38 in9.7 mm
08:58 AM 39.7°F4.3°C 35.9°F2.2°C 86% 26.0 mph SW41.8 kmh SW 38.0 mph61.2 kmh 29.59 in1002.0 mb 0.00 in0.0 mm 0.00 in0.0 mm 0.38 in9.7 mm
09:00 AM 39.7°F4.3°C 35.9°F2.2°C 86% 26.0 mph SW41.8 kmh SW 38.0 mph61.2 kmh 29.59 in1002.0 mb 0.00 in0.0 mm 0.00 in0.0 mm 0.38 in9.7 mm
09:02 AM 39.7°F4.3°C 35.9°F2.2°C 86% 26.0 mph WSW41.8 kmh WSW 38.0 mph61.2 kmh 29.59 in1002.0 mb 0.00 in0.0 mm 0.00 in0.0 mm 0.38 in9.7 mm
09:04 AM 39.6°F4.2°C 35.8°F2.1°C 86% 25.0 mph WSW40.2 kmh WSW 38.0 mph61.2 kmh 29.60 in1002.4 mb 0.00 in0.0 mm 0.00 in0.0 mm 0.38 in9.7 mm
09:06 AM 39.6°F4.2°C 35.8°F2.1°C 86% 24.0 mph WSW38.6 kmh WSW 38.0 mph61.2 kmh 29.60 in1002.4 mb 0.00 in0.0 mm 0.00 in0.0 mm 0.38 in9.7 mm
09:08 AM 39.6°F4.2°C 35.8°F2.1°C 86% 24.0 mph WSW38.6 kmh WSW 35.0 mph56.3 kmh 29.60 in1002.4 mb 0.00 in0.0 mm 0.00 in0.0 mm 0.38 in9.7 mm
09:10 AM 39.5°F4.2°C 35.7°F2.1°C 86% 24.0 mph WSW38.6 kmh WSW 35.0 mph56.3 kmh 29.60 in1002.4 mb 0.00 in0.0 mm 0.00 in0.0 mm 0.38 in9.7 mm
09:12 AM 39.4°F4.1°C 35.6°F2.0°C 86% 23.0 mph WSW37.0 kmh WSW 35.0 mph56.3 kmh 29.61 in1002.7 mb 0.00 in0.0 mm 0.00 in0.0 mm 0.38 in9.7 mm
09:14 AM 39.3°F4.1°C 35.5°F1.9°C 86% 24.0 mph SW38.6 kmh SW 35.0 mph56.3 kmh 29.61 in1002.7 mb 0.00 in0.0 mm 0.00 in0.0 mm 0.38 in9.7 mm
09:16 AM 39.2°F4.0°C 35.1°F1.7°C 85% 25.0 mph SW40.2 kmh SW 40.0 mph64.4 kmh 29.61 in1002.7 mb 0.00 in0.0 mm 0.00 in0.0 mm 0.38 in9.7 mm
09:18 AM 39.1°F3.9°C 35.0°F1.7°C 85% 25.0 mph SW40.2 kmh SW 40.0 mph64.4 kmh 29.61 in1002.7 mb 0.00 in0.0 mm 0.00 in0.0 mm 0.38 in9.7 mm
09:20 AM 39.1°F3.9°C 35.3°F1.8°C 86% 25.0 mph SW40.2 kmh SW 40.0 mph64.4 kmh 29.61 in1002.7 mb 0.00 in0.0 mm 0.00 in0.0 mm 0.38 in9.7 mm
09:22 AM 39.1°F3.9°C 35.0°F1.7°C 85% 25.0 mph SW40.2 kmh SW 40.0 mph64.4 kmh 29.61 in1002.7 mb 0.00 in0.0 mm 0.00 in0.0 mm 0.38 in9.7 mm
09:24 AM 39.1°F3.9°C 35.3°F1.8°C 86% 25.0 mph SW40.2 kmh SW 40.0 mph64.4 kmh 29.61 in1002.7 mb 0.00 in0.0 mm 0.00 in0.0 mm 0.38 in9.7 mm
09:26 AM 39.1°F3.9°C 34.7°F1.5°C 84% 25.0 mph WSW40.2 kmh WSW 37.0 mph59.5 kmh 29.61 in1002.7 mb 0.00 in0.0 mm 0.00 in0.0 mm 0.38 in9.7 mm
09:28 AM 39.1°F3.9°C 35.0°F1.7°C 85% 25.0 mph WSW40.2 kmh WSW 37.0 mph59.5 kmh 29.62 in1003.0 mb 0.00 in0.0 mm 0.00 in0.0 mm 0.38 in9.7 mm
09:30 AM 39.1°F3.9°C 35.0°F1.7°C 85% 25.0 mph WSW40.2 kmh WSW 37.0 mph59.5 kmh 29.61 in1002.7 mb 0.00 in0.0 mm 0.00 in0.0 mm 0.38 in9.7 mm
09:32 AM 39.2°F4.0°C 34.8°F1.6°C 84% 25.0 mph WSW40.2 kmh WSW 35.0 mph56.3 kmh 29.61 in1002.7 mb 0.00 in0.0 mm 0.00 in0.0 mm 0.38 in9.7 mm
09:34 AM 39.1°F3.9°C 34.7°F1.5°C 84% 25.0 mph WSW40.2 kmh WSW 33.0 mph53.1 kmh 29.62 in1003.0 mb 0.00 in0.0 mm 0.00 in0.0 mm 0.38 in9.7 mm
09:36 AM 39.1°F3.9°C 34.7°F1.5°C 84% 24.0 mph WSW38.6 kmh WSW 37.0 mph59.5 kmh 29.63 in1003.4 mb 0.00 in0.0 mm 0.00 in0.0 mm 0.38 in9.7 mm
09:38 AM 39.1°F3.9°C 34.7°F1.5°C 84% 25.0 mph WSW40.2 kmh WSW 37.0 mph59.5 kmh 29.63 in1003.4 mb 0.00 in0.0 mm 0.00 in0.0 mm 0.38 in9.7 mm
09:40 AM 39.0°F3.9°C 34.6°F1.4°C 84% 25.0 mph WSW40.2 kmh WSW 37.0 mph59.5 kmh 29.63 in1003.4 mb 0.00 in0.0 mm 0.00 in0.0 mm 0.38 in9.7 mm
09:42 AM 38.9°F3.8°C 34.2°F1.2°C 83% 26.0 mph WSW41.8 kmh WSW 37.0 mph59.5 kmh 29.64 in1003.7 mb 0.00 in0.0 mm 0.00 in0.0 mm 0.38 in9.7 mm
09:44 AM 38.9°F3.8°C 34.2°F1.2°C 83% 26.0 mph WSW41.8 kmh WSW 37.0 mph59.5 kmh 29.64 in1003.7 mb 0.00 in0.0 mm 0.00 in0.0 mm 0.38 in9.7 mm
09:46 AM 38.9°F3.8°C 34.2°F1.2°C 83% 27.0 mph WSW43.5 kmh WSW 36.0 mph57.9 kmh 29.64 in1003.7 mb 0.00 in0.0 mm 0.00 in0.0 mm 0.38 in9.7 mm
09:48 AM 38.9°F3.8°C 34.2°F1.2°C 83% 27.0 mph WSW43.5 kmh WSW 36.0 mph57.9 kmh 29.65 in1004.1 mb 0.00 in0.0 mm 0.00 in0.0 mm 0.38 in9.7 mm
09:50 AM 38.9°F3.8°C 34.2°F1.2°C 83% 27.0 mph WSW43.5 kmh WSW 35.0 mph56.3 kmh 29.65 in1004.1 mb 0.00 in0.0 mm 0.00 in0.0 mm 0.38 in9.7 mm
09:52 AM 38.9°F3.8°C 34.2°F1.2°C 83% 26.0 mph WSW41.8 kmh WSW 35.0 mph56.3 kmh 29.65 in1004.1 mb 0.00 in0.0 mm 0.00 in0.0 mm 0.38 in9.7 mm
09:54 AM 38.9°F3.8°C 34.2°F1.2°C 83% 26.0 mph WSW41.8 kmh WSW 36.0 mph57.9 kmh 29.65 in1004.1 mb 0.00 in0.0 mm 0.00 in0.0 mm 0.38 in9.7 mm
09:56 AM 38.9°F3.8°C 34.2°F1.2°C 83% 27.0 mph WSW43.5 kmh WSW 38.0 mph61.2 kmh 29.66 in1004.4 mb 0.00 in0.0 mm 0.00 in0.0 mm 0.38 in9.7 mm
09:58 AM 38.9°F3.8°C 34.2°F1.2°C 83% 26.0 mph WSW41.8 kmh WSW 38.0 mph61.2 kmh 29.66 in1004.4 mb 0.00 in0.0 mm 0.00 in0.0 mm 0.38 in9.7 mm
10:00 AM 38.9°F3.8°C 34.2°F1.2°C 83% 26.0 mph WSW41.8 kmh WSW 38.0 mph61.2 kmh 29.66 in1004.4 mb 0.00 in0.0 mm 0.00 in0.0 mm 0.38 in9.7 mm
10:02 AM 38.8°F3.8°C 34.1°F1.2°C 83% 26.0 mph WSW41.8 kmh WSW 38.0 mph61.2 kmh 29.66 in1004.4 mb 0.00 in0.0 mm 0.00 in0.0 mm 0.38 in9.7 mm
10:04 AM 38.8°F3.8°C 34.1°F1.2°C 83% 26.0 mph WSW41.8 kmh WSW 38.0 mph61.2 kmh 29.66 in1004.4 mb 0.00 in0.0 mm 0.00 in0.0 mm 0.38 in9.7 mm
10:06 AM 38.8°F3.8°C 34.1°F1.2°C 83% 25.0 mph WSW40.2 kmh WSW 35.0 mph56.3 kmh 29.66 in1004.4 mb 0.00 in0.0 mm 0.00 in0.0 mm 0.38 in9.7 mm
10:08 AM 38.7°F3.7°C 34.0°F1.1°C 83% 26.0 mph WSW41.8 kmh WSW 35.0 mph56.3 kmh 29.67 in1004.7 mb 0.00 in0.0 mm 0.00 in0.0 mm 0.38 in9.7 mm
10:10 AM 38.7°F3.7°C 34.0°F1.1°C 83% 26.0 mph WSW41.8 kmh WSW 35.0 mph56.3 kmh 29.67 in1004.7 mb 0.00 in0.0 mm 0.00 in0.0 mm 0.38 in9.7 mm
10:12 AM 38.7°F3.7°C 34.0°F1.1°C 83% 26.0 mph WSW41.8 kmh WSW 36.0 mph57.9 kmh 29.66 in1004.4 mb 0.00 in0.0 mm 0.00 in0.0 mm 0.38 in9.7 mm
10:14 AM 38.7°F3.7°C 34.3°F1.3°C 84% 25.0 mph WSW40.2 kmh WSW 36.0 mph57.9 kmh 29.67 in1004.7 mb 0.00 in0.0 mm 0.00 in0.0 mm 0.38 in9.7 mm
10:16 AM 38.6°F3.7°C 34.2°F1.2°C 84% 25.0 mph WSW40.2 kmh WSW 38.0 mph61.2 kmh 29.67 in1004.7 mb 0.00 in0.0 mm 0.00 in0.0 mm 0.38 in9.7 mm
10:18 AM 38.6°F3.7°C 33.9°F1.1°C 83% 25.0 mph WSW40.2 kmh WSW 38.0 mph61.2 kmh 29.67 in1004.7 mb 0.00 in0.0 mm 0.00 in0.0 mm 0.38 in9.7 mm
10:20 AM 38.6°F3.7°C 33.9°F1.1°C 83% 25.0 mph WSW40.2 kmh WSW 38.0 mph61.2 kmh 29.67 in1004.7 mb 0.00 in0.0 mm 0.00 in0.0 mm 0.38 in9.7 mm
10:22 AM 38.5°F3.6°C 33.8°F1.0°C 83% 25.0 mph WSW40.2 kmh WSW 38.0 mph61.2 kmh 29.68 in1005.1 mb 0.00 in0.0 mm 0.00 in0.0 mm 0.38 in9.7 mm
10:24 AM 38.5°F3.6°C 33.8°F1.0°C 83% 26.0 mph WSW41.8 kmh WSW 38.0 mph61.2 kmh 29.68 in1005.1 mb 0.00 in0.0 mm 0.00 in0.0 mm 0.38 in9.7 mm
10:26 AM 38.5°F3.6°C 34.1°F1.2°C 84% 26.0 mph WSW41.8 kmh WSW 37.0 mph59.5 kmh 29.68 in1005.1 mb 0.00 in0.0 mm 0.00 in0.0 mm 0.38 in9.7 mm
10:28 AM 38.5°F3.6°C 34.1°F1.2°C 84% 25.0 mph WSW40.2 kmh WSW 35.0 mph56.3 kmh 29.69 in1005.4 mb 0.00 in0.0 mm 0.00 in0.0 mm 0.38 in9.7 mm
10:30 AM 38.4°F3.6°C 34.0°F1.1°C 84% 24.0 mph WSW38.6 kmh WSW 33.0 mph53.1 kmh 29.68 in1005.1 mb 0.00 in0.0 mm 0.00 in0.0 mm 0.38 in9.7 mm
10:32 AM 38.4°F3.6°C 34.0°F1.1°C 84% 23.0 mph WSW37.0 kmh WSW 33.0 mph53.1 kmh 29.68 in1005.1 mb 0.00 in0.0 mm 0.00 in0.0 mm 0.38 in9.7 mm
10:34 AM 38.3°F3.5°C 33.9°F1.1°C 84% 23.0 mph WSW37.0 kmh WSW 33.0 mph53.1 kmh 29.69 in1005.4 mb 0.00 in0.0 mm 0.00 in0.0 mm 0.38 in9.7 mm
10:36 AM 38.4°F3.6°C 34.0°F1.1°C 84% 22.0 mph WSW35.4 kmh WSW 33.0 mph53.1 kmh 29.69 in1005.4 mb 0.00 in0.0 mm 0.00 in0.0 mm 0.38 in9.7 mm
10:38 AM 38.4°F3.6°C 34.3°F1.3°C 85% 21.0 mph WSW33.8 kmh WSW 33.0 mph53.1 kmh 29.69 in1005.4 mb 0.00 in0.0 mm 0.00 in0.0 mm 0.38 in9.7 mm
10:40 AM 38.4°F3.6°C 34.0°F1.1°C 84% 22.0 mph WSW35.4 kmh WSW 33.0 mph53.1 kmh 29.69 in1005.4 mb 0.00 in0.0 mm 0.00 in0.0 mm 0.38 in9.7 mm
10:42 AM 38.4°F3.6°C 33.7°F0.9°C 83% 22.0 mph WSW35.4 kmh WSW 37.0 mph59.5 kmh 29.69 in1005.4 mb 0.00 in0.0 mm 0.00 in0.0 mm 0.38 in9.7 mm
10:44 AM 38.4°F3.6°C 33.4°F0.8°C 82% 23.0 mph WSW37.0 kmh WSW 37.0 mph59.5 kmh 29.69 in1005.4 mb 0.00 in0.0 mm 0.00 in0.0 mm 0.38 in9.7 mm
10:46 AM 38.4°F3.6°C 33.4°F0.8°C 82% 24.0 mph WSW38.6 kmh WSW 37.0 mph59.5 kmh 29.70 in1005.8 mb 0.00 in0.0 mm 0.00 in0.0 mm 0.38 in9.7 mm
10:48 AM 38.5°F3.6°C 33.5°F0.8°C 82% 25.0 mph WSW40.2 kmh WSW 37.0 mph59.5 kmh 29.70 in1005.8 mb 0.00 in0.0 mm 0.00 in0.0 mm 0.38 in9.7 mm
10:50 AM 38.5°F3.6°C 33.8°F1.0°C 83% 25.0 mph WSW40.2 kmh WSW 37.0 mph59.5 kmh 29.70 in1005.8 mb 0.00 in0.0 mm 0.00 in0.0 mm 0.38 in9.7 mm
10:52 AM 38.6°F3.7°C 33.9°F1.1°C 83% 24.0 mph WSW38.6 kmh WSW 36.0 mph57.9 kmh 29.70 in1005.8 mb 0.00 in0.0 mm 0.00 in0.0 mm 0.38 in9.7 mm
10:54 AM 38.6°F3.7°C 33.9°F1.1°C 83% 22.0 mph WSW35.4 kmh WSW 34.0 mph54.7 kmh 29.70 in1005.8 mb 0.00 in0.0 mm 0.00 in0.0 mm 0.38 in9.7 mm
10:56 AM 38.6°F3.7°C 33.9°F1.1°C 83% 22.0 mph WSW35.4 kmh WSW 34.0 mph54.7 kmh 29.71 in1006.1 mb 0.00 in0.0 mm 0.00 in0.0 mm 0.38 in9.7 mm
10:58 AM 38.6°F3.7°C 33.9°F1.1°C 83% 22.0 mph WSW35.4 kmh WSW 34.0 mph54.7 kmh 29.71 in1006.1 mb 0.00 in0.0 mm 0.00 in0.0 mm 0.38 in9.7 mm
11:00 AM 38.5°F3.6°C 33.5°F0.8°C 82% 23.0 mph WSW37.0 kmh WSW 36.0 mph57.9 kmh 29.71 in1006.1 mb 0.00 in0.0 mm 0.00 in0.0 mm 0.38 in9.7 mm
11:02 AM 38.5°F3.6°C 33.5°F0.8°C 82% 24.0 mph WSW38.6 kmh WSW 36.0 mph57.9 kmh 29.71 in1006.1 mb 0.00 in0.0 mm 0.00 in0.0 mm 0.38 in9.7 mm
11:04 AM 38.5°F3.6°C 33.8°F1.0°C 83% 23.0 mph WSW37.0 kmh WSW 36.0 mph57.9 kmh 29.71 in1006.1 mb 0.00 in0.0 mm 0.00 in0.0 mm 0.38 in9.7 mm
11:06 AM 38.5°F3.6°C 33.5°F0.8°C 82% 24.0 mph WSW38.6 kmh WSW 36.0 mph57.9 kmh 29.71 in1006.1 mb 0.00 in0.0 mm 0.00 in0.0 mm 0.38 in9.7 mm
11:08 AM 38.5°F3.6°C 33.5°F0.8°C 82% 25.0 mph WSW40.2 kmh WSW 36.0 mph57.9 kmh 29.71 in1006.1 mb 0.00 in0.0 mm 0.00 in0.0 mm 0.38 in9.7 mm
11:10 AM 38.5°F3.6°C 33.8°F1.0°C 83% 24.0 mph WSW38.6 kmh WSW 34.0 mph54.7 kmh 29.71 in1006.1 mb 0.00 in0.0 mm 0.00 in0.0 mm 0.38 in9.7 mm
11:12 AM 38.6°F3.7°C 33.9°F1.1°C 83% 24.0 mph WSW38.6 kmh WSW 34.0 mph54.7 kmh 29.71 in1006.1 mb 0.00 in0.0 mm 0.00 in0.0 mm 0.38 in9.7 mm
11:14 AM 38.6°F3.7°C 33.6°F0.9°C 82% 25.0 mph WSW40.2 kmh WSW 35.0 mph56.3 kmh 29.71 in1006.1 mb 0.00 in0.0 mm 0.00 in0.0 mm 0.38 in9.7 mm
11:16 AM 38.6°F3.7°C 33.6°F0.9°C 82% 25.0 mph WSW40.2 kmh WSW 35.0 mph56.3 kmh 29.72 in1006.4 mb 0.00 in0.0 mm 0.00 in0.0 mm 0.38 in9.7 mm
11:18 AM 38.6°F3.7°C 33.6°F0.9°C 82% 25.0 mph WSW40.2 kmh WSW 39.0 mph62.8 kmh 29.72 in1006.4 mb 0.00 in0.0 mm 0.00 in0.0 mm 0.38 in9.7 mm
11:20 AM 38.7°F3.7°C 33.7°F0.9°C 82% 26.0 mph WSW41.8 kmh WSW 42.0 mph67.6 kmh 29.72 in1006.4 mb 0.00 in0.0 mm 0.00 in0.0 mm 0.38 in9.7 mm
11:22 AM 38.7°F3.7°C 34.0°F1.1°C 83% 26.0 mph WSW41.8 kmh WSW 42.0 mph67.6 kmh 29.72 in1006.4 mb 0.00 in0.0 mm 0.00 in0.0 mm 0.38 in9.7 mm
11:24 AM 38.7°F3.7°C 34.0°F1.1°C 83% 26.0 mph WSW41.8 kmh WSW 42.0 mph67.6 kmh 29.72 in1006.4 mb 0.00 in0.0 mm 0.00 in0.0 mm 0.38 in9.7 mm
11:26 AM 38.8°F3.8°C 34.1°F1.2°C 83% 25.0 mph WSW40.2 kmh WSW 42.0 mph67.6 kmh 29.72 in1006.4 mb 0.00 in0.0 mm 0.00 in0.0 mm 0.38 in9.7 mm
11:28 AM 38.8°F3.8°C 34.4°F1.3°C 84% 23.0 mph WSW37.0 kmh WSW 42.0 mph67.6 kmh 29.73 in1006.8 mb 0.00 in0.0 mm 0.00 in0.0 mm 0.38 in9.7 mm
11:30 AM 38.8°F3.8°C 34.1°F1.2°C 83% 23.0 mph WSW37.0 kmh WSW 38.0 mph61.2 kmh 29.73 in1006.8 mb 0.00 in0.0 mm 0.00 in0.0 mm 0.38 in9.7 mm
11:32 AM 38.9°F3.8°C 34.2°F1.2°C 83% 24.0 mph WSW38.6 kmh WSW 38.0 mph61.2 kmh 29.73 in1006.8 mb 0.00 in0.0 mm 0.00 in0.0 mm 0.38 in9.7 mm
11:34 AM 38.9°F3.8°C 34.2°F1.2°C 83% 24.0 mph WSW38.6 kmh WSW 38.0 mph61.2 kmh 29.73 in1006.8 mb 0.00 in0.0 mm 0.00 in0.0 mm 0.38 in9.7 mm
11:36 AM 39.1°F3.9°C 34.4°F1.3°C 83% 24.0 mph WSW38.6 kmh WSW 38.0 mph61.2 kmh 29.73 in1006.8 mb 0.00 in0.0 mm 0.00 in0.0 mm 0.38 in9.7 mm
11:38 AM 39.2°F4.0°C 34.5°F1.4°C 83% 25.0 mph WSW40.2 kmh WSW 38.0 mph61.2 kmh 29.73 in1006.8 mb 0.00 in0.0 mm 0.00 in0.0 mm 0.38 in9.7 mm
11:40 AM 39.3°F4.1°C 34.6°F1.4°C 83% 25.0 mph WSW40.2 kmh WSW 37.0 mph59.5 kmh 29.73 in1006.8 mb 0.00 in0.0 mm 0.00 in0.0 mm 0.38 in9.7 mm
11:42 AM 39.4°F4.1°C 34.7°F1.5°C 83% 25.0 mph WSW40.2 kmh WSW 37.0 mph59.5 kmh 29.74 in1007.1 mb 0.00 in0.0 mm 0.00 in0.0 mm 0.38 in9.7 mm
11:44 AM 39.5°F4.2°C 34.8°F1.6°C 83% 25.0 mph WSW40.2 kmh WSW 34.0 mph54.7 kmh 29.73 in1006.8 mb 0.00 in0.0 mm 0.00 in0.0 mm 0.38 in9.7 mm
11:46 AM 39.6°F4.2°C 34.9°F1.6°C 83% 24.0 mph WSW38.6 kmh WSW 35.0 mph56.3 kmh 29.74 in1007.1 mb 0.00 in0.0 mm 0.00 in0.0 mm 0.38 in9.7 mm
11:48 AM 39.7°F4.3°C 35.0°F1.7°C 83% 24.0 mph WSW38.6 kmh WSW 35.0 mph56.3 kmh 29.74 in1007.1 mb 0.00 in0.0 mm 0.00 in0.0 mm 0.38 in9.7 mm
11:50 AM 39.7°F4.3°C 35.0°F1.7°C 83% 24.0 mph WSW38.6 kmh WSW 35.0 mph56.3 kmh 29.74 in1007.1 mb 0.00 in0.0 mm 0.00 in0.0 mm 0.38 in9.7 mm
11:52 AM 39.6°F4.2°C 34.6°F1.4°C 82% 25.0 mph WSW40.2 kmh WSW 39.0 mph62.8 kmh 29.74 in1007.1 mb 0.00 in0.0 mm 0.00 in0.0 mm 0.38 in9.7 mm
11:54 AM 39.6°F4.2°C 34.9°F1.6°C 83% 25.0 mph WSW40.2 kmh WSW 39.0 mph62.8 kmh 29.74 in1007.1 mb 0.00 in0.0 mm 0.00 in0.0 mm 0.38 in9.7 mm
11:56 AM 39.6°F4.2°C 34.6°F1.4°C 82% 26.0 mph WSW41.8 kmh WSW 39.0 mph62.8 kmh 29.74 in1007.1 mb 0.00 in0.0 mm 0.00 in0.0 mm 0.38 in9.7 mm
11:58 AM 39.4°F4.1°C 34.4°F1.3°C 82% 27.0 mph WSW43.5 kmh WSW 39.0 mph62.8 kmh 29.75 in1007.5 mb 0.00 in0.0 mm 0.00 in0.0 mm 0.38 in9.7 mm
12:00 PM 39.4°F4.1°C 34.7°F1.5°C 83% 27.0 mph WSW43.5 kmh WSW 39.0 mph62.8 kmh 29.75 in1007.5 mb 0.00 in0.0 mm 0.00 in0.0 mm 0.38 in9.7 mm
12:02 PM 39.3°F4.1°C 34.3°F1.3°C 82% 27.0 mph WSW43.5 kmh WSW 39.0 mph62.8 kmh 29.75 in1007.5 mb 0.00 in0.0 mm 0.00 in0.0 mm 0.38 in9.7 mm
12:04 PM 39.3°F4.1°C 34.3°F1.3°C 82% 27.0 mph WSW43.5 kmh WSW 39.0 mph62.8 kmh 29.76 in1007.8 mb 0.00 in0.0 mm 0.00 in0.0 mm 0.38 in9.7 mm
12:06 PM 39.1°F3.9°C 34.1°F1.2°C 82% 27.0 mph WSW43.5 kmh WSW 41.0 mph66.0 kmh 29.76 in1007.8 mb 0.00 in0.0 mm 0.00 in0.0 mm 0.38 in9.7 mm
12:08 PM 38.9°F3.8°C 33.9°F1.1°C 82% 27.0 mph WSW43.5 kmh WSW 41.0 mph66.0 kmh 29.76 in1007.8 mb 0.00 in0.0 mm 0.00 in0.0 mm 0.38 in9.7 mm
12:10 PM 38.9°F3.8°C 33.9°F1.1°C 82% 28.0 mph WSW45.1 kmh WSW 41.0 mph66.0 kmh 29.76 in1007.8 mb 0.00 in0.0 mm 0.00 in0.0 mm 0.38 in9.7 mm
12:12 PM 38.9°F3.8°C 33.9°F1.1°C 82% 28.0 mph WSW45.1 kmh WSW 41.0 mph66.0 kmh 29.76 in1007.8 mb 0.00 in0.0 mm 0.00 in0.0 mm 0.38 in9.7 mm
12:14 PM 38.9°F3.8°C 34.2°F1.2°C 83% 27.0 mph WSW43.5 kmh WSW 41.0 mph66.0 kmh 29.77 in1008.1 mb 0.00 in0.0 mm 0.00 in0.0 mm 0.38 in9.7 mm
12:16 PM 38.9°F3.8°C 34.2°F1.2°C 83% 27.0 mph WSW43.5 kmh WSW 38.0 mph61.2 kmh 29.76 in1007.8 mb 0.00 in0.0 mm 0.00 in0.0 mm 0.38 in9.7 mm
12:18 PM 39.1°F3.9°C 34.4°F1.3°C 83% 25.0 mph WSW40.2 kmh WSW 38.0 mph61.2 kmh 29.77 in1008.1 mb 0.00 in0.0 mm 0.00 in0.0 mm 0.38 in9.7 mm
12:20 PM 39.1°F3.9°C 34.4°F1.3°C 83% 24.0 mph WSW38.6 kmh WSW 35.0 mph56.3 kmh 29.77 in1008.1 mb 0.00 in0.0 mm 0.00 in0.0 mm 0.38 in9.7 mm
12:22 PM 39.1°F3.9°C 34.4°F1.3°C 83% 24.0 mph WSW38.6 kmh WSW 35.0 mph56.3 kmh 29.77 in1008.1 mb 0.00 in0.0 mm 0.00 in0.0 mm 0.38 in9.7 mm
12:24 PM 39.1°F3.9°C 34.4°F1.3°C 83% 23.0 mph WSW37.0 kmh WSW 34.0 mph54.7 kmh 29.77 in1008.1 mb 0.00 in0.0 mm 0.00 in0.0 mm 0.38 in9.7 mm
12:26 PM 39.1°F3.9°C 34.1°F1.2°C 82% 24.0 mph WSW38.6 kmh WSW 36.0 mph57.9 kmh 29.77 in1008.1 mb 0.00 in0.0 mm 0.00 in0.0 mm 0.38 in9.7 mm
12:28 PM 39.1°F3.9°C 34.1°F1.2°C 82% 25.0 mph WSW40.2 kmh WSW 39.0 mph62.8 kmh 29.78 in1008.5 mb 0.00 in0.0 mm 0.00 in0.0 mm 0.38 in9.7 mm
12:30 PM 39.1°F3.9°C 34.4°F1.3°C 83% 26.0 mph WSW41.8 kmh WSW 39.0 mph62.8 kmh 29.78 in1008.5 mb 0.00 in0.0 mm 0.00 in0.0 mm 0.38 in9.7 mm
12:32 PM 39.1°F3.9°C 34.1°F1.2°C 82% 26.0 mph WSW41.8 kmh WSW 39.0 mph62.8 kmh 29.77 in1008.1 mb 0.00 in0.0 mm 0.00 in0.0 mm 0.38 in9.7 mm
12:34 PM 39.1°F3.9°C 34.1°F1.2°C 82% 27.0 mph WSW43.5 kmh WSW 39.0 mph62.8 kmh 29.78 in1008.5 mb 0.00 in0.0 mm 0.00 in0.0 mm 0.38 in9.7 mm
12:36 PM 39.0°F3.9°C 34.0°F1.1°C 82% 27.0 mph WSW43.5 kmh WSW 39.0 mph62.8 kmh 29.78 in1008.5 mb 0.00 in0.0 mm 0.00 in0.0 mm 0.38 in9.7 mm
12:38 PM 39.0°F3.9°C 34.0°F1.1°C 82% 26.0 mph WSW41.8 kmh WSW 38.0 mph61.2 kmh 29.79 in1008.8 mb 0.00 in0.0 mm 0.00 in0.0 mm 0.38 in9.7 mm
12:40 PM 38.9°F3.8°C 33.9°F1.1°C 82% 27.0 mph WSW43.5 kmh WSW 38.0 mph61.2 kmh 29.79 in1008.8 mb 0.00 in0.0 mm 0.00 in0.0 mm 0.38 in9.7 mm
12:42 PM 38.9°F3.8°C 33.9°F1.1°C 82% 26.0 mph WSW41.8 kmh WSW 37.0 mph59.5 kmh 29.79 in1008.8 mb 0.00 in0.0 mm 0.00 in0.0 mm 0.38 in9.7 mm
12:44 PM 38.9°F3.8°C 33.9°F1.1°C 82% 26.0 mph WSW41.8 kmh WSW 38.0 mph61.2 kmh 29.79 in1008.8 mb 0.00 in0.0 mm 0.00 in0.0 mm 0.38 in9.7 mm
12:46 PM 38.8°F3.8°C 33.8°F1.0°C 82% 26.0 mph WSW41.8 kmh WSW 38.0 mph61.2 kmh 29.79 in1008.8 mb 0.00 in0.0 mm 0.00 in0.0 mm 0.38 in9.7 mm
12:48 PM 38.7°F3.7°C 33.7°F0.9°C 82% 27.0 mph WSW43.5 kmh WSW 38.0 mph61.2 kmh 29.80 in1009.1 mb 0.00 in0.0 mm 0.00 in0.0 mm 0.38 in9.7 mm
12:50 PM 38.7°F3.7°C 33.7°F0.9°C 82% 27.0 mph WSW43.5 kmh WSW 38.0 mph61.2 kmh 29.80 in1009.1 mb 0.00 in0.0 mm 0.00 in0.0 mm 0.38 in9.7 mm
12:52 PM 38.6°F3.7°C 33.6°F0.9°C 82% 28.0 mph WSW45.1 kmh WSW 38.0 mph61.2 kmh 29.80 in1009.1 mb 0.00 in0.0 mm 0.00 in0.0 mm 0.38 in9.7 mm
12:54 PM 38.6°F3.7°C 33.9°F1.1°C 83% 27.0 mph WSW43.5 kmh WSW 37.0 mph59.5 kmh 29.81 in1009.5 mb 0.00 in0.0 mm 0.00 in0.0 mm 0.38 in9.7 mm
12:56 PM 38.6°F3.7°C 33.6°F0.9°C 82% 28.0 mph WSW45.1 kmh WSW 39.0 mph62.8 kmh 29.80 in1009.1 mb 0.00 in0.0 mm 0.00 in0.0 mm 0.38 in9.7 mm
12:58 PM 38.5°F3.6°C 33.5°F0.8°C 82% 28.0 mph WSW45.1 kmh WSW 39.0 mph62.8 kmh 29.81 in1009.5 mb 0.00 in0.0 mm 0.00 in0.0 mm 0.38 in9.7 mm
01:00 PM 38.4°F3.6°C 33.4°F0.8°C 82% 29.0 mph WSW46.7 kmh WSW 39.0 mph62.8 kmh 29.81 in1009.5 mb 0.00 in0.0 mm 0.00 in0.0 mm 0.38 in9.7 mm
01:02 PM 38.4°F3.6°C 33.4°F0.8°C 82% 28.0 mph WSW45.1 kmh WSW 40.0 mph64.4 kmh 29.82 in1009.8 mb 0.00 in0.0 mm 0.00 in0.0 mm 0.38 in9.7 mm
01:04 PM 38.4°F3.6°C 33.7°F0.9°C 83% 28.0 mph W45.1 kmh W 40.0 mph64.4 kmh 29.82 in1009.8 mb 0.00 in0.0 mm 0.00 in0.0 mm 0.38 in9.7 mm
01:06 PM 38.3°F3.5°C 33.6°F0.9°C 83% 28.0 mph W45.1 kmh W 40.0 mph64.4 kmh 29.82 in1009.8 mb 0.00 in0.0 mm 0.00 in0.0 mm 0.38 in9.7 mm
01:08 PM 38.3°F3.5°C 33.6°F0.9°C 83% 27.0 mph W43.5 kmh W 40.0 mph64.4 kmh 29.82 in1009.8 mb 0.00 in0.0 mm 0.00 in0.0 mm 0.38 in9.7 mm
01:10 PM 38.3°F3.5°C 33.6°F0.9°C 83% 26.0 mph W41.8 kmh W 40.0 mph64.4 kmh 29.82 in1009.8 mb 0.00 in0.0 mm 0.00 in0.0 mm 0.38 in9.7 mm
01:12 PM 38.3°F3.5°C 33.6°F0.9°C 83% 26.0 mph WSW41.8 kmh WSW 38.0 mph61.2 kmh 29.82 in1009.8 mb 0.00 in0.0 mm 0.00 in0.0 mm 0.38 in9.7 mm
01:14 PM 38.3°F3.5°C 33.6°F0.9°C 83% 27.0 mph WSW43.5 kmh WSW 38.0 mph61.2 kmh 29.82 in1009.8 mb 0.00 in0.0 mm 0.00 in0.0 mm 0.38 in9.7 mm
01:16 PM 38.3°F3.5°C 33.6°F0.9°C 83% 26.0 mph WSW41.8 kmh WSW 36.0 mph57.9 kmh 29.82 in1009.8 mb 0.00 in0.0 mm 0.00 in0.0 mm 0.38 in9.7 mm
01:18 PM 38.3°F3.5°C 33.6°F0.9°C 83% 26.0 mph WSW41.8 kmh WSW 36.0 mph57.9 kmh 29.82 in1009.8 mb 0.00 in0.0 mm 0.00 in0.0 mm 0.38 in9.7 mm
01:22 PM 38.3°F3.5°C 33.9°F1.1°C 84% 26.0 mph WSW41.8 kmh WSW 36.0 mph57.9 kmh 29.82 in1009.8 mb 0.00 in0.0 mm 0.00 in0.0 mm 0.38 in9.7 mm
01:24 PM 38.4°F3.6°C 34.0°F1.1°C 84% 25.0 mph WSW40.2 kmh WSW 36.0 mph57.9 kmh 29.82 in1009.8 mb 0.00 in0.0 mm 0.00 in0.0 mm 0.38 in9.7 mm
01:26 PM 38.5°F3.6°C 34.1°F1.2°C 84% 25.0 mph WSW40.2 kmh WSW 36.0 mph57.9 kmh 29.83 in1010.2 mb 0.00 in0.0 mm 0.00 in0.0 mm 0.38 in9.7 mm
01:28 PM 38.5°F3.6°C 33.8°F1.0°C 83% 25.0 mph WSW40.2 kmh WSW 36.0 mph57.9 kmh 29.83 in1010.2 mb 0.00 in0.0 mm 0.00 in0.0 mm 0.38 in9.7 mm
01:30 PM 38.5°F3.6°C 33.8°F1.0°C 83% 26.0 mph WSW41.8 kmh WSW 36.0 mph57.9 kmh 29.83 in1010.2 mb 0.00 in0.0 mm 0.00 in0.0 mm 0.38 in9.7 mm
01:32 PM 38.5°F3.6°C 33.8°F1.0°C 83% 27.0 mph WSW43.5 kmh WSW 37.0 mph59.5 kmh 29.83 in1010.2 mb 0.00 in0.0 mm 0.00 in0.0 mm 0.38 in9.7 mm
01:34 PM 38.5°F3.6°C 33.8°F1.0°C 83% 27.0 mph WSW43.5 kmh WSW 37.0 mph59.5 kmh 29.84 in1010.5 mb 0.00 in0.0 mm 0.00 in0.0 mm 0.38 in9.7 mm
01:36 PM 38.5°F3.6°C 33.8°F1.0°C 83% 27.0 mph WSW43.5 kmh WSW 37.0 mph59.5 kmh 29.84 in1010.5 mb 0.00 in0.0 mm 0.00 in0.0 mm 0.38 in9.7 mm
01:38 PM 38.5°F3.6°C 33.8°F1.0°C 83% 26.0 mph WSW41.8 kmh WSW 37.0 mph59.5 kmh 29.84 in1010.5 mb 0.00 in0.0 mm 0.00 in0.0 mm 0.38 in9.7 mm
01:40 PM 38.4°F3.6°C 33.7°F0.9°C 83% 25.0 mph WSW40.2 kmh WSW 37.0 mph59.5 kmh 29.85 in1010.8 mb 0.00 in0.0 mm 0.00 in0.0 mm 0.38 in9.7 mm
01:42 PM 38.4°F3.6°C 33.7°F0.9°C 83% 24.0 mph WSW38.6 kmh WSW 34.0 mph54.7 kmh 29.85 in1010.8 mb 0.00 in0.0 mm 0.00 in0.0 mm 0.38 in9.7 mm
01:44 PM 38.4°F3.6°C 34.0°F1.1°C 84% 23.0 mph WSW37.0 kmh WSW 34.0 mph54.7 kmh 29.85 in1010.8 mb 0.00 in0.0 mm 0.00 in0.0 mm 0.38 in9.7 mm
01:46 PM 38.4°F3.6°C 33.7°F0.9°C 83% 23.0 mph WSW37.0 kmh WSW 34.0 mph54.7 kmh 29.85 in1010.8 mb 0.00 in0.0 mm 0.00 in0.0 mm 0.38 in9.7 mm
01:48 PM 38.3°F3.5°C 33.6°F0.9°C 83% 24.0 mph WSW38.6 kmh WSW 36.0 mph57.9 kmh 29.85 in1010.8 mb 0.00 in0.0 mm 0.00 in0.0 mm 0.38 in9.7 mm
01:50 PM 38.3°F3.5°C 33.6°F0.9°C 83% 25.0 mph WSW40.2 kmh WSW 38.0 mph61.2 kmh 29.85 in1010.8 mb 0.00 in0.0 mm 0.00 in0.0 mm 0.38 in9.7 mm
01:52 PM 38.3°F3.5°C 33.9°F1.1°C 84% 25.0 mph WSW40.2 kmh WSW 38.0 mph61.2 kmh 29.85 in1010.8 mb 0.00 in0.0 mm 0.00 in0.0 mm 0.38 in9.7 mm
01:54 PM 38.3°F3.5°C 33.9°F1.1°C 84% 25.0 mph WSW40.2 kmh WSW 38.0 mph61.2 kmh 29.86 in1011.2 mb 0.00 in0.0 mm 0.00 in0.0 mm 0.38 in9.7 mm
01:56 PM 38.4°F3.6°C 34.0°F1.1°C 84% 25.0 mph WSW40.2 kmh WSW 38.0 mph61.2 kmh 29.86 in1011.2 mb 0.00 in0.0 mm 0.00 in0.0 mm 0.38 in9.7 mm
01:58 PM 38.4°F3.6°C 34.0°F1.1°C 84% 25.0 mph WSW40.2 kmh WSW 38.0 mph61.2 kmh 29.86 in1011.2 mb 0.00 in0.0 mm 0.00 in0.0 mm 0.38 in9.7 mm
02:00 PM 38.4°F3.6°C 33.7°F0.9°C 83% 25.0 mph WSW40.2 kmh WSW 37.0 mph59.5 kmh 29.86 in1011.2 mb 0.00 in0.0 mm 0.00 in0.0 mm 0.38 in9.7 mm
02:02 PM 38.4°F3.6°C 34.0°F1.1°C 84% 25.0 mph WSW40.2 kmh WSW 37.0 mph59.5 kmh 29.86 in1011.2 mb 0.00 in0.0 mm 0.00 in0.0 mm 0.38 in9.7 mm
02:04 PM 38.4°F3.6°C 33.7°F0.9°C 83% 25.0 mph WSW40.2 kmh WSW 37.0 mph59.5 kmh 29.86 in1011.2 mb 0.00 in0.0 mm 0.00 in0.0 mm 0.38 in9.7 mm
02:06 PM 38.4°F3.6°C 34.0°F1.1°C 84% 25.0 mph WSW40.2 kmh WSW 37.0 mph59.5 kmh 29.87 in1011.5 mb 0.00 in0.0 mm 0.00 in0.0 mm 0.38 in9.7 mm
02:08 PM 38.4°F3.6°C 33.7°F0.9°C 83% 26.0 mph WSW41.8 kmh WSW 39.0 mph62.8 kmh 29.87 in1011.5 mb 0.00 in0.0 mm 0.00 in0.0 mm 0.38 in9.7 mm
02:10 PM 38.3°F3.5°C 33.6°F0.9°C 83% 25.0 mph WSW40.2 kmh WSW 39.0 mph62.8 kmh 29.87 in1011.5 mb 0.00 in0.0 mm 0.00 in0.0 mm 0.38 in9.7 mm
02:12 PM 38.3°F3.5°C 33.6°F0.9°C 83% 25.0 mph WSW40.2 kmh WSW 39.0 mph62.8 kmh 29.88 in1011.9 mb 0.00 in0.0 mm 0.00 in0.0 mm 0.38 in9.7 mm
02:14 PM 38.2°F3.4°C 33.5°F0.8°C 83% 25.0 mph WSW40.2 kmh WSW 39.0 mph62.8 kmh 29.88 in1011.9 mb 0.00 in0.0 mm 0.00 in0.0 mm 0.38 in9.7 mm
02:16 PM 38.1°F3.4°C 33.4°F0.8°C 83% 26.0 mph WSW41.8 kmh WSW 39.0 mph62.8 kmh 29.88 in1011.9 mb 0.00 in0.0 mm 0.00 in0.0 mm 0.38 in9.7 mm
02:18 PM 38.1°F3.4°C 33.4°F0.8°C 83% 25.0 mph WSW40.2 kmh WSW 38.0 mph61.2 kmh 29.88 in1011.9 mb 0.00 in0.0 mm 0.00 in0.0 mm 0.38 in9.7 mm
02:20 PM 38.1°F3.4°C 33.4°F0.8°C 83% 26.0 mph WSW41.8 kmh WSW 38.0 mph61.2 kmh 29.89 in1012.2 mb 0.00 in0.0 mm 0.00 in0.0 mm 0.38 in9.7 mm
02:22 PM 38.0°F3.3°C 33.3°F0.7°C 83% 27.0 mph WSW43.5 kmh WSW 38.0 mph61.2 kmh 29.89 in1012.2 mb 0.00 in0.0 mm 0.00 in0.0 mm 0.38 in9.7 mm
02:24 PM 38.0°F3.3°C 33.3°F0.7°C 83% 26.0 mph WSW41.8 kmh WSW 38.0 mph61.2 kmh 29.89 in1012.2 mb 0.00 in0.0 mm 0.00 in0.0 mm 0.38 in9.7 mm
02:26 PM 37.9°F3.3°C 33.2°F0.7°C 83% 26.0 mph WSW41.8 kmh WSW 37.0 mph59.5 kmh 29.89 in1012.2 mb 0.00 in0.0 mm 0.00 in0.0 mm 0.38 in9.7 mm
02:28 PM 38.0°F3.3°C 33.6°F0.9°C 84% 26.0 mph WSW41.8 kmh WSW 37.0 mph59.5 kmh 29.89 in1012.2 mb 0.00 in0.0 mm 0.00 in0.0 mm 0.38 in9.7 mm
02:30 PM 38.0°F3.3°C 33.3°F0.7°C 83% 27.0 mph W43.5 kmh W 38.0 mph61.2 kmh 29.89 in1012.2 mb 0.00 in0.0 mm 0.00 in0.0 mm 0.38 in9.7 mm
02:32 PM 38.0°F3.3°C 33.3°F0.7°C 83% 27.0 mph W43.5 kmh W 38.0 mph61.2 kmh 29.89 in1012.2 mb 0.00 in0.0 mm 0.00 in0.0 mm 0.38 in9.7 mm
02:34 PM 38.1°F3.4°C 33.7°F0.9°C 84% 27.0 mph W43.5 kmh W 38.0 mph61.2 kmh 29.89 in1012.2 mb 0.00 in0.0 mm 0.00 in0.0 mm 0.38 in9.7 mm
02:36 PM 38.1°F3.4°C 33.4°F0.8°C 83% 27.0 mph W43.5 kmh W 38.0 mph61.2 kmh 29.89 in1012.2 mb 0.00 in0.0 mm 0.00 in0.0 mm 0.38 in9.7 mm
02:38 PM 38.1°F3.4°C 33.7°F0.9°C 84% 27.0 mph W43.5 kmh W 38.0 mph61.2 kmh 29.90 in1012.5 mb 0.00 in0.0 mm 0.00 in0.0 mm 0.38 in9.7 mm
02:40 PM 38.2°F3.4°C 33.8°F1.0°C 84% 25.0 mph WSW40.2 kmh WSW 38.0 mph61.2 kmh 29.90 in1012.5 mb 0.00 in0.0 mm 0.00 in0.0 mm 0.38 in9.7 mm
02:42 PM 38.2°F3.4°C 33.5°F0.8°C 83% 26.0 mph WSW41.8 kmh WSW 35.0 mph56.3 kmh 29.90 in1012.5 mb 0.00 in0.0 mm 0.00 in0.0 mm 0.38 in9.7 mm
02:44 PM 38.2°F3.4°C 33.5°F0.8°C 83% 26.0 mph WSW41.8 kmh WSW 35.0 mph56.3 kmh 29.90 in1012.5 mb 0.00 in0.0 mm 0.00 in0.0 mm 0.38 in9.7 mm
02:46 PM 38.2°F3.4°C 33.8°F1.0°C 84% 26.0 mph WSW41.8 kmh WSW 35.0 mph56.3 kmh 29.91 in1012.9 mb 0.00 in0.0 mm 0.00 in0.0 mm 0.38 in9.7 mm
02:48 PM 38.1°F3.4°C 33.4°F0.8°C 83% 26.0 mph WSW41.8 kmh WSW 40.0 mph64.4 kmh 29.91 in1012.9 mb 0.00 in0.0 mm 0.00 in0.0 mm 0.38 in9.7 mm
02:50 PM 38.1°F3.4°C 33.4°F0.8°C 83% 27.0 mph W43.5 kmh W 40.0 mph64.4 kmh 29.91 in1012.9 mb 0.00 in0.0 mm 0.00 in0.0 mm 0.38 in9.7 mm
02:52 PM 38.2°F3.4°C 33.8°F1.0°C 84% 26.0 mph W41.8 kmh W 40.0 mph64.4 kmh 29.91 in1012.9 mb 0.00 in0.0 mm 0.00 in0.0 mm 0.38 in9.7 mm
02:54 PM 38.2°F3.4°C 33.8°F1.0°C 84% 25.0 mph W40.2 kmh W 40.0 mph64.4 kmh 29.92 in1013.2 mb 0.00 in0.0 mm 0.00 in0.0 mm 0.38 in9.7 mm
02:56 PM 38.2°F3.4°C 33.8°F1.0°C 84% 24.0 mph W38.6 kmh W 40.0 mph64.4 kmh 29.92 in1013.2 mb 0.00 in0.0 mm 0.00 in0.0 mm 0.38 in9.7 mm
02:58 PM 38.1°F3.4°C 33.4°F0.8°C 83% 24.0 mph W38.6 kmh W 37.0 mph59.5 kmh 29.92 in1013.2 mb 0.00 in0.0 mm 0.00 in0.0 mm 0.38 in9.7 mm
03:00 PM 38.1°F3.4°C 33.4°F0.8°C 83% 24.0 mph W38.6 kmh W 33.0 mph53.1 kmh 29.93 in1013.5 mb 0.00 in0.0 mm 0.00 in0.0 mm 0.38 in9.7 mm
03:02 PM 38.1°F3.4°C 33.4°F0.8°C 83% 24.0 mph W38.6 kmh W 33.0 mph53.1 kmh 29.93 in1013.5 mb 0.00 in0.0 mm 0.00 in0.0 mm 0.38 in9.7 mm
03:04 PM 38.1°F3.4°C 33.4°F0.8°C 83% 24.0 mph W38.6 kmh W 33.0 mph53.1 kmh 29.93 in1013.5 mb 0.00 in0.0 mm 0.00 in0.0 mm 0.38 in9.7 mm
03:06 PM 38.1°F3.4°C 33.4°F0.8°C 83% 24.0 mph W38.6 kmh W 33.0 mph53.1 kmh 29.94 in1013.9 mb 0.00 in0.0 mm 0.00 in0.0 mm 0.38 in9.7 mm
03:08 PM 38.0°F3.3°C 33.3°F0.7°C 83% 24.0 mph W38.6 kmh W 33.0 mph53.1 kmh 29.94 in1013.9 mb 0.00 in0.0 mm 0.00 in0.0 mm 0.38 in9.7 mm
03:10 PM 38.0°F3.3°C 33.6°F0.9°C 84% 24.0 mph W38.6 kmh W 32.0 mph51.5 kmh 29.94 in1013.9 mb 0.00 in0.0 mm 0.00 in0.0 mm 0.38 in9.7 mm
03:12 PM 37.9°F3.3°C 33.2°F0.7°C 83% 25.0 mph W40.2 kmh W 34.0 mph54.7 kmh 29.94 in1013.9 mb 0.00 in0.0 mm 0.00 in0.0 mm 0.38 in9.7 mm
03:14 PM 37.9°F3.3°C 33.2°F0.7°C 83% 24.0 mph W38.6 kmh W 34.0 mph54.7 kmh 29.94 in1013.9 mb 0.00 in0.0 mm 0.00 in0.0 mm 0.38 in9.7 mm
03:16 PM 37.9°F3.3°C 33.2°F0.7°C 83% 25.0 mph W40.2 kmh W 34.0 mph54.7 kmh 29.95 in1014.2 mb 0.00 in0.0 mm 0.00 in0.0 mm 0.38 in9.7 mm
03:18 PM 37.8°F3.2°C 33.1°F0.6°C 83% 25.0 mph W40.2 kmh W 34.0 mph54.7 kmh 29.95 in1014.2 mb 0.00 in0.0 mm 0.00 in0.0 mm 0.38 in9.7 mm
03:20 PM 37.8°F3.2°C 32.8°F0.4°C 82% 26.0 mph W41.8 kmh W 38.0 mph61.2 kmh 29.95 in1014.2 mb 0.00 in0.0 mm 0.00 in0.0 mm 0.38 in9.7 mm
03:22 PM 37.8°F3.2°C 32.8°F0.4°C 82% 26.0 mph W41.8 kmh W 38.0 mph61.2 kmh 29.95 in1014.2 mb 0.00 in0.0 mm 0.00 in0.0 mm 0.38 in9.7 mm
03:24 PM 37.9°F3.3°C 33.2°F0.7°C 83% 26.0 mph W41.8 kmh W 38.0 mph61.2 kmh 29.96 in1014.6 mb 0.00 in0.0 mm 0.00 in0.0 mm 0.38 in9.7 mm
03:26 PM 37.8°F3.2°C 33.1°F0.6°C 83% 25.0 mph W40.2 kmh W 38.0 mph61.2 kmh 29.96 in1014.6 mb 0.00 in0.0 mm 0.00 in0.0 mm 0.38 in9.7 mm
03:28 PM 37.8°F3.2°C 33.1°F0.6°C 83% 25.0 mph W40.2 kmh W 38.0 mph61.2 kmh 29.96 in1014.6 mb 0.00 in0.0 mm 0.00 in0.0 mm 0.38 in9.7 mm
03:30 PM 37.8°F3.2°C 33.1°F0.6°C 83% 24.0 mph W38.6 kmh W 36.0 mph57.9 kmh 29.96 in1014.6 mb 0.00 in0.0 mm 0.00 in0.0 mm 0.38 in9.7 mm
03:32 PM 37.8°F3.2°C 33.1°F0.6°C 83% 23.0 mph W37.0 kmh W 34.0 mph54.7 kmh 29.97 in1014.9 mb 0.00 in0.0 mm 0.00 in0.0 mm 0.38 in9.7 mm
03:34 PM 37.8°F3.2°C 33.1°F0.6°C 83% 24.0 mph W38.6 kmh W 34.0 mph54.7 kmh 29.98 in1015.2 mb 0.00 in0.0 mm 0.00 in0.0 mm 0.38 in9.7 mm
03:36 PM 37.7°F3.2°C 33.0°F0.6°C 83% 24.0 mph W38.6 kmh W 34.0 mph54.7 kmh 29.98 in1015.2 mb 0.00 in0.0 mm 0.00 in0.0 mm 0.38 in9.7 mm
03:38 PM 37.8°F3.2°C 33.1°F0.6°C 83% 24.0 mph W38.6 kmh W 34.0 mph54.7 kmh 29.98 in1015.2 mb 0.00 in0.0 mm 0.00 in0.0 mm 0.38 in9.7 mm
03:40 PM 37.7°F3.2°C 33.0°F0.6°C 83% 23.0 mph W37.0 kmh W 33.0 mph53.1 kmh 29.98 in1015.2 mb 0.00 in0.0 mm 0.00 in0.0 mm 0.38 in9.7 mm
03:42 PM 37.7°F3.2°C 33.0°F0.6°C 83% 23.0 mph W37.0 kmh W 31.0 mph49.9 kmh 29.99 in1015.6 mb 0.00 in0.0 mm 0.00 in0.0 mm 0.38 in9.7 mm
03:44 PM 37.7°F3.2°C 33.0°F0.6°C 83% 22.0 mph W35.4 kmh W 31.0 mph49.9 kmh 29.99 in1015.6 mb 0.00 in0.0 mm 0.00 in0.0 mm 0.38 in9.7 mm
03:46 PM 37.7°F3.2°C 33.0°F0.6°C 83% 22.0 mph W35.4 kmh W 29.0 mph46.7 kmh 29.99 in1015.6 mb 0.00 in0.0 mm 0.00 in0.0 mm 0.38 in9.7 mm
03:48 PM 37.6°F3.1°C 32.9°F0.5°C 83% 22.0 mph W35.4 kmh W 29.0 mph46.7 kmh 29.99 in1015.6 mb 0.00 in0.0 mm 0.00 in0.0 mm 0.38 in9.7 mm
03:50 PM 37.6°F3.1°C 32.9°F0.5°C 83% 22.0 mph W35.4 kmh W 29.0 mph46.7 kmh 30.00 in1015.9 mb 0.00 in0.0 mm 0.00 in0.0 mm 0.38 in9.7 mm
03:52 PM 37.6°F3.1°C 32.9°F0.5°C 83% 22.0 mph W35.4 kmh W 30.0 mph48.3 kmh 30.00 in1015.9 mb 0.00 in0.0 mm 0.00 in0.0 mm 0.38 in9.7 mm
03:54 PM 37.6°F3.1°C 32.9°F0.5°C 83% 22.0 mph W35.4 kmh W 30.0 mph48.3 kmh 30.00 in1015.9 mb 0.00 in0.0 mm 0.00 in0.0 mm 0.38 in9.7 mm
03:56 PM 37.6°F3.1°C 32.9°F0.5°C 83% 22.0 mph W35.4 kmh W 30.0 mph48.3 kmh 30.00 in1015.9 mb 0.00 in0.0 mm 0.00 in0.0 mm 0.38 in9.7 mm
03:58 PM 37.5°F3.1°C 33.1°F0.6°C 84% 21.0 mph W33.8 kmh W 30.0 mph48.3 kmh 30.00 in1015.9 mb 0.00 in0.0 mm 0.00 in0.0 mm 0.38 in9.7 mm
04:00 PM 37.5°F3.1°C 33.1°F0.6°C 84% 21.0 mph W33.8 kmh W 30.0 mph48.3 kmh 30.00 in1015.9 mb 0.00 in0.0 mm 0.00 in0.0 mm 0.38 in9.7 mm
04:02 PM 37.5°F3.1°C 33.1°F0.6°C 84% 20.0 mph W32.2 kmh W 29.0 mph46.7 kmh 30.01 in1016.3 mb 0.00 in0.0 mm 0.00 in0.0 mm 0.38 in9.7 mm
04:04 PM 37.4°F3.0°C 33.0°F0.6°C 84% 19.0 mph W30.6 kmh W 29.0 mph46.7 kmh 30.01 in1016.3 mb 0.00 in0.0 mm 0.00 in0.0 mm 0.38 in9.7 mm
04:06 PM 37.4°F3.0°C 33.0°F0.6°C 84% 19.0 mph W30.6 kmh W 29.0 mph46.7 kmh 30.01 in1016.3 mb 0.00 in0.0 mm 0.00 in0.0 mm 0.38 in9.7 mm
04:08 PM 37.4°F3.0°C 33.0°F0.6°C 84% 20.0 mph W32.2 kmh W 29.0 mph46.7 kmh 30.01 in1016.3 mb 0.00 in0.0 mm 0.00 in0.0 mm 0.38 in9.7 mm
04:10 PM 37.4°F3.0°C 33.0°F0.6°C 84% 20.0 mph W32.2 kmh W 28.0 mph45.1 kmh 30.02 in1016.6 mb 0.00 in0.0 mm 0.00 in0.0 mm 0.38 in9.7 mm
04:12 PM 37.3°F2.9°C 32.9°F0.5°C 84% 19.0 mph W30.6 kmh W 27.0 mph43.5 kmh 30.02 in1016.6 mb 0.00 in0.0 mm 0.00 in0.0 mm 0.38 in9.7 mm
04:14 PM 37.3°F2.9°C 32.9°F0.5°C 84% 19.0 mph W30.6 kmh W 27.0 mph43.5 kmh 30.02 in1016.6 mb 0.00 in0.0 mm 0.00 in0.0 mm 0.38 in9.7 mm
04:16 PM 37.3°F2.9°C 32.9°F0.5°C 84% 18.0 mph W29.0 kmh W 27.0 mph43.5 kmh 30.02 in1016.6 mb 0.00 in0.0 mm 0.00 in0.0 mm 0.38 in9.7 mm
04:18 PM 37.3°F2.9°C 32.9°F0.5°C 84% 18.0 mph W29.0 kmh W 30.0 mph48.3 kmh 30.02 in1016.6 mb 0.00 in0.0 mm 0.00 in0.0 mm 0.38 in9.7 mm
04:20 PM 37.3°F2.9°C 32.9°F0.5°C 84% 18.0 mph W29.0 kmh W 30.0 mph48.3 kmh 30.03 in1016.9 mb 0.00 in0.0 mm 0.00 in0.0 mm 0.38 in9.7 mm
04:22 PM 37.4°F3.0°C 33.0°F0.6°C 84% 19.0 mph W30.6 kmh W 30.0 mph48.3 kmh 30.03 in1016.9 mb 0.00 in0.0 mm 0.00 in0.0 mm 0.38 in9.7 mm
04:24 PM 37.3°F2.9°C 32.9°F0.5°C 84% 19.0 mph W30.6 kmh W 30.0 mph48.3 kmh 30.04 in1017.3 mb 0.00 in0.0 mm 0.00 in0.0 mm 0.38 in9.7 mm
04:26 PM 37.4°F3.0°C 32.7°F0.4°C 83% 20.0 mph W32.2 kmh W 30.0 mph48.3 kmh 30.04 in1017.3 mb 0.00 in0.0 mm 0.00 in0.0 mm 0.38 in9.7 mm
04:28 PM 37.4°F3.0°C 33.0°F0.6°C 84% 20.0 mph W32.2 kmh W 27.0 mph43.5 kmh 30.04 in1017.3 mb 0.00 in0.0 mm 0.00 in0.0 mm 0.38 in9.7 mm
04:30 PM 37.4°F3.0°C 33.0°F0.6°C 84% 19.0 mph W30.6 kmh W 27.0 mph43.5 kmh 30.04 in1017.3 mb 0.00 in0.0 mm 0.00 in0.0 mm 0.38 in9.7 mm
04:32 PM 37.3°F2.9°C 32.9°F0.5°C 84% 18.0 mph W29.0 kmh W 30.0 mph48.3 kmh 30.04 in1017.3 mb 0.00 in0.0 mm 0.00 in0.0 mm 0.38 in9.7 mm
04:34 PM 37.3°F2.9°C 32.9°F0.5°C 84% 18.0 mph W29.0 kmh W 30.0 mph48.3 kmh 30.05 in1017.6 mb 0.00 in0.0 mm 0.00 in0.0 mm 0.38 in9.7 mm
04:36 PM 37.4°F3.0°C 33.0°F0.6°C 84% 18.0 mph W29.0 kmh W 30.0 mph48.3 kmh 30.05 in1017.6 mb 0.00 in0.0 mm 0.00 in0.0 mm 0.38 in9.7 mm
04:44 PM 37.3°F2.9°C 32.9°F0.5°C 84% 18.0 mph W29.0 kmh W 28.0 mph45.1 kmh 30.06 in1017.9 mb 0.00 in0.0 mm 0.00 in0.0 mm 0.38 in9.7 mm
04:46 PM 37.3°F2.9°C 32.9°F0.5°C 84% 18.0 mph W29.0 kmh W 28.0 mph45.1 kmh 30.06 in1017.9 mb 0.00 in0.0 mm 0.00 in0.0 mm 0.38 in9.7 mm
04:48 PM 37.4°F3.0°C 33.0°F0.6°C 84% 18.0 mph W29.0 kmh W 28.0 mph45.1 kmh 30.06 in1017.9 mb 0.00 in0.0 mm 0.00 in0.0 mm 0.38 in9.7 mm
04:50 PM 37.4°F3.0°C 33.0°F0.6°C 84% 18.0 mph W29.0 kmh W 28.0 mph45.1 kmh 30.06 in1017.9 mb 0.00 in0.0 mm 0.00 in0.0 mm 0.38 in9.7 mm
04:52 PM 37.3°F2.9°C 32.9°F0.5°C 84% 18.0 mph W29.0 kmh W 28.0 mph45.1 kmh 30.07 in1018.3 mb 0.00 in0.0 mm 0.00 in0.0 mm 0.38 in9.7 mm
04:54 PM 37.3°F2.9°C 32.9°F0.5°C 84% 18.0 mph W29.0 kmh W 25.0 mph40.2 kmh 30.07 in1018.3 mb 0.00 in0.0 mm 0.00 in0.0 mm 0.38 in9.7 mm
04:56 PM 37.3°F2.9°C 32.9°F0.5°C 84% 17.0 mph W27.4 kmh W 24.0 mph38.6 kmh 30.07 in1018.3 mb 0.00 in0.0 mm 0.00 in0.0 mm 0.38 in9.7 mm
04:58 PM 37.3°F2.9°C 32.9°F0.5°C 84% 17.0 mph W27.4 kmh W 24.0 mph38.6 kmh 30.07 in1018.3 mb 0.00 in0.0 mm 0.00 in0.0 mm 0.38 in9.7 mm
05:00 PM 37.3°F2.9°C 32.9°F0.5°C 84% 17.0 mph W27.4 kmh W 24.0 mph38.6 kmh 30.07 in1018.3 mb 0.00 in0.0 mm 0.00 in0.0 mm 0.38 in9.7 mm
05:02 PM 37.3°F2.9°C 32.9°F0.5°C 84% 17.0 mph W27.4 kmh W 25.0 mph40.2 kmh 30.08 in1018.6 mb 0.00 in0.0 mm 0.00 in0.0 mm 0.38 in9.7 mm
05:04 PM 37.3°F2.9°C 32.9°F0.5°C 84% 17.0 mph W27.4 kmh W 25.0 mph40.2 kmh 30.08 in1018.6 mb 0.00 in0.0 mm 0.00 in0.0 mm 0.38 in9.7 mm
05:06 PM 37.3°F2.9°C 32.9°F0.5°C 84% 17.0 mph W27.4 kmh W 25.0 mph40.2 kmh 30.08 in1018.6 mb 0.00 in0.0 mm 0.00 in0.0 mm 0.38 in9.7 mm
05:08 PM 37.3°F2.9°C 32.9°F0.5°C 84% 17.0 mph W27.4 kmh W 25.0 mph40.2 kmh 30.09 in1019.0 mb 0.00 in0.0 mm 0.00 in0.0 mm 0.38 in9.7 mm
05:10 PM 37.2°F2.9°C 32.8°F0.4°C 84% 17.0 mph W27.4 kmh W 27.0 mph43.5 kmh 30.09 in1019.0 mb 0.00 in0.0 mm 0.00 in0.0 mm 0.38 in9.7 mm
05:12 PM 37.2°F2.9°C 32.8°F0.4°C 84% 17.0 mph W27.4 kmh W 27.0 mph43.5 kmh 30.09 in1019.0 mb 0.00 in0.0 mm 0.00 in0.0 mm 0.38 in9.7 mm
05:14 PM 37.2°F2.9°C 32.8°F0.4°C 84% 17.0 mph W27.4 kmh W 27.0 mph43.5 kmh 30.09 in1019.0 mb 0.00 in0.0 mm 0.00 in0.0 mm 0.38 in9.7 mm
05:16 PM 37.1°F2.8°C 32.7°F0.4°C 84% 17.0 mph W27.4 kmh W 27.0 mph43.5 kmh 30.09 in1019.0 mb 0.00 in0.0 mm 0.00 in0.0 mm 0.38 in9.7 mm
05:18 PM 37.1°F2.8°C 32.7°F0.4°C 84% 17.0 mph W27.4 kmh W 27.0 mph43.5 kmh 30.09 in1019.0 mb 0.00 in0.0 mm 0.00 in0.0 mm 0.38 in9.7 mm
05:20 PM 37.0°F2.8°C 32.6°F0.3°C 84% 17.0 mph W27.4 kmh W 26.0 mph41.8 kmh 30.10 in1019.3 mb 0.00 in0.0 mm 0.00 in0.0 mm 0.38 in9.7 mm
05:22 PM 36.9°F2.7°C 32.5°F0.3°C 84% 17.0 mph W27.4 kmh W 26.0 mph41.8 kmh 30.10 in1019.3 mb 0.00 in0.0 mm 0.00 in0.0 mm 0.38 in9.7 mm
05:24 PM 36.9°F2.7°C 32.5°F0.3°C 84% 18.0 mph W29.0 kmh W 26.0 mph41.8 kmh 30.10 in1019.3 mb 0.00 in0.0 mm 0.00 in0.0 mm 0.38 in9.7 mm
05:26 PM 36.8°F2.7°C 32.4°F0.2°C 84% 18.0 mph W29.0 kmh W 26.0 mph41.8 kmh 30.10 in1019.3 mb 0.00 in0.0 mm 0.00 in0.0 mm 0.38 in9.7 mm
05:28 PM 36.8°F2.7°C 32.4°F0.2°C 84% 19.0 mph W30.6 kmh W 26.0 mph41.8 kmh 30.10 in1019.3 mb 0.00 in0.0 mm 0.00 in0.0 mm 0.38 in9.7 mm
05:30 PM 36.8°F2.7°C 32.4°F0.2°C 84% 19.0 mph W30.6 kmh W 26.0 mph41.8 kmh 30.10 in1019.3 mb 0.00 in0.0 mm 0.00 in0.0 mm 0.38 in9.7 mm
05:32 PM 36.7°F2.6°C 32.3°F0.2°C 84% 19.0 mph W30.6 kmh W 26.0 mph41.8 kmh 30.10 in1019.3 mb 0.00 in0.0 mm 0.00 in0.0 mm 0.38 in9.7 mm
05:34 PM 36.7°F2.6°C 32.3°F0.2°C 84% 19.0 mph W30.6 kmh W 28.0 mph45.1 kmh 30.11 in1019.6 mb 0.00 in0.0 mm 0.00 in0.0 mm 0.38 in9.7 mm
05:36 PM 36.6°F2.6°C 32.2°F0.1°C 84% 19.0 mph W30.6 kmh W 29.0 mph46.7 kmh 30.11 in1019.6 mb 0.00 in0.0 mm 0.00 in0.0 mm 0.38 in9.7 mm
05:38 PM 36.6°F2.6°C 31.9°F-0.1°C 83% 20.0 mph W32.2 kmh W 29.0 mph46.7 kmh 30.11 in1019.6 mb 0.00 in0.0 mm 0.00 in0.0 mm 0.38 in9.7 mm
05:40 PM 36.6°F2.6°C 31.9°F-0.1°C 83% 20.0 mph W32.2 kmh W 29.0 mph46.7 kmh 30.11 in1019.6 mb 0.00 in0.0 mm 0.00 in0.0 mm 0.38 in9.7 mm
05:42 PM 36.6°F2.6°C 31.9°F-0.1°C 83% 21.0 mph W33.8 kmh W 29.0 mph46.7 kmh 30.11 in1019.6 mb 0.00 in0.0 mm 0.00 in0.0 mm 0.38 in9.7 mm
05:44 PM 36.6°F2.6°C 31.9°F-0.1°C 83% 21.0 mph W33.8 kmh W 29.0 mph46.7 kmh 30.12 in1020.0 mb 0.00 in0.0 mm 0.00 in0.0 mm 0.38 in9.7 mm
05:46 PM 36.5°F2.5°C 31.8°F-0.1°C 83% 21.0 mph W33.8 kmh W 29.0 mph46.7 kmh 30.12 in1020.0 mb 0.00 in0.0 mm 0.00 in0.0 mm 0.38 in9.7 mm
05:48 PM 36.5°F2.5°C 32.1°F0.1°C 84% 20.0 mph W32.2 kmh W 29.0 mph46.7 kmh 30.12 in1020.0 mb 0.00 in0.0 mm 0.00 in0.0 mm 0.38 in9.7 mm
05:50 PM 36.4°F2.4°C 32.0°F0.0°C 84% 20.0 mph W32.2 kmh W 31.0 mph49.9 kmh 30.12 in1020.0 mb 0.00 in0.0 mm 0.00 in0.0 mm 0.38 in9.7 mm
05:52 PM 36.4°F2.4°C 31.7°F-0.2°C 83% 21.0 mph W33.8 kmh W 31.0 mph49.9 kmh 30.12 in1020.0 mb 0.00 in0.0 mm 0.00 in0.0 mm 0.38 in9.7 mm
05:54 PM 36.4°F2.4°C 31.7°F-0.2°C 83% 21.0 mph W33.8 kmh W 31.0 mph49.9 kmh 30.12 in1020.0 mb 0.00 in0.0 mm 0.00 in0.0 mm 0.38 in9.7 mm
05:56 PM 36.4°F2.4°C 31.7°F-0.2°C 83% 22.0 mph W35.4 kmh W 31.0 mph49.9 kmh 30.12 in1020.0 mb 0.00 in0.0 mm 0.00 in0.0 mm 0.38 in9.7 mm
05:58 PM 36.3°F2.4°C 31.6°F-0.2°C 83% 23.0 mph W37.0 kmh W 31.0 mph49.9 kmh 30.12 in1020.0 mb 0.00 in0.0 mm 0.00 in0.0 mm 0.38 in9.7 mm
06:00 PM 36.3°F2.4°C 31.9°F-0.1°C 84% 22.0 mph W35.4 kmh W 31.0 mph49.9 kmh 30.12 in1020.0 mb 0.00 in0.0 mm 0.00 in0.0 mm 0.38 in9.7 mm
06:02 PM 36.2°F2.3°C 31.5°F-0.3°C 83% 21.0 mph W33.8 kmh W 31.0 mph49.9 kmh 30.12 in1020.0 mb 0.00 in0.0 mm 0.00 in0.0 mm 0.38 in9.7 mm
06:04 PM 36.2°F2.3°C 31.5°F-0.3°C 83% 21.0 mph W33.8 kmh W 31.0 mph49.9 kmh 30.12 in1020.0 mb 0.00 in0.0 mm 0.00 in0.0 mm 0.38 in9.7 mm
06:06 PM 36.2°F2.3°C 31.5°F-0.3°C 83% 21.0 mph W33.8 kmh W 31.0 mph49.9 kmh 30.12 in1020.0 mb 0.00 in0.0 mm 0.00 in0.0 mm 0.38 in9.7 mm
06:08 PM 36.1°F2.3°C 31.1°F-0.5°C 82% 20.0 mph W32.2 kmh W 31.0 mph49.9 kmh 30.13 in1020.3 mb 0.00 in0.0 mm 0.00 in0.0 mm 0.38 in9.7 mm
06:10 PM 36.1°F2.3°C 31.1°F-0.5°C 82% 20.0 mph W32.2 kmh W 31.0 mph49.9 kmh 30.13 in1020.3 mb 0.00 in0.0 mm 0.00 in0.0 mm 0.38 in9.7 mm
06:12 PM 36.1°F2.3°C 31.1°F-0.5°C 82% 20.0 mph W32.2 kmh W 31.0 mph49.9 kmh 30.13 in1020.3 mb 0.00 in0.0 mm 0.00 in0.0 mm 0.38 in9.7 mm
06:14 PM 36.1°F2.3°C 31.4°F-0.3°C 83% 20.0 mph W32.2 kmh W 25.0 mph40.2 kmh 30.14 in1020.7 mb 0.00 in0.0 mm 0.00 in0.0 mm 0.38 in9.7 mm
06:16 PM 36.0°F2.2°C 31.3°F-0.4°C 83% 19.0 mph W30.6 kmh W 25.0 mph40.2 kmh 30.14 in1020.7 mb 0.00 in0.0 mm 0.00 in0.0 mm 0.38 in9.7 mm
06:18 PM 36.0°F2.2°C 31.6°F-0.2°C 84% 19.0 mph WSW30.6 kmh WSW 25.0 mph40.2 kmh 30.14 in1020.7 mb 0.00 in0.0 mm 0.00 in0.0 mm 0.38 in9.7 mm
06:20 PM 36.0°F2.2°C 31.6°F-0.2°C 84% 18.0 mph WSW29.0 kmh WSW 25.0 mph40.2 kmh 30.13 in1020.3 mb 0.00 in0.0 mm 0.00 in0.0 mm 0.38 in9.7 mm
06:22 PM 36.0°F2.2°C 31.6°F-0.2°C 84% 18.0 mph WSW29.0 kmh WSW 25.0 mph40.2 kmh 30.14 in1020.7 mb 0.00 in0.0 mm 0.00 in0.0 mm 0.38 in9.7 mm
06:24 PM 35.9°F2.2°C 31.5°F-0.3°C 84% 18.0 mph WSW29.0 kmh WSW 25.0 mph40.2 kmh 30.14 in1020.7 mb 0.00 in0.0 mm 0.00 in0.0 mm 0.38 in9.7 mm
06:26 PM 35.9°F2.2°C 31.5°F-0.3°C 84% 18.0 mph WSW29.0 kmh WSW 26.0 mph41.8 kmh 30.14 in1020.7 mb 0.00 in0.0 mm 0.00 in0.0 mm 0.38 in9.7 mm
06:28 PM 35.8°F2.1°C 31.4°F-0.3°C 84% 18.0 mph WSW29.0 kmh WSW 26.0 mph41.8 kmh 30.14 in1020.7 mb 0.00 in0.0 mm 0.00 in0.0 mm 0.38 in9.7 mm
06:30 PM 35.7°F2.1°C 31.3°F-0.4°C 84% 18.0 mph WSW29.0 kmh WSW 26.0 mph41.8 kmh 30.14 in1020.7 mb 0.00 in0.0 mm 0.00 in0.0 mm 0.38 in9.7 mm
06:32 PM 35.7°F2.1°C 31.3°F-0.4°C 84% 18.0 mph WSW29.0 kmh WSW 26.0 mph41.8 kmh 30.14 in1020.7 mb 0.00 in0.0 mm 0.00 in0.0 mm 0.38 in9.7 mm
06:34 PM 35.6°F2.0°C 31.2°F-0.4°C 84% 19.0 mph WSW30.6 kmh WSW 26.0 mph41.8 kmh 30.15 in1021.0 mb 0.00 in0.0 mm 0.00 in0.0 mm 0.38 in9.7 mm
06:36 PM 35.6°F2.0°C 31.2°F-0.4°C 84% 18.0 mph WSW29.0 kmh WSW 27.0 mph43.5 kmh 30.15 in1021.0 mb 0.00 in0.0 mm 0.00 in0.0 mm 0.38 in9.7 mm
06:38 PM 35.5°F1.9°C 31.1°F-0.5°C 84% 19.0 mph W30.6 kmh W 27.0 mph43.5 kmh 30.15 in1021.0 mb 0.00 in0.0 mm 0.00 in0.0 mm 0.38 in9.7 mm
06:40 PM 35.6°F2.0°C 30.9°F-0.6°C 83% 19.0 mph W30.6 kmh W 27.0 mph43.5 kmh 30.15 in1021.0 mb 0.00 in0.0 mm 0.00 in0.0 mm 0.38 in9.7 mm
06:42 PM 35.6°F2.0°C 30.9°F-0.6°C 83% 20.0 mph W32.2 kmh W 27.0 mph43.5 kmh 30.15 in1021.0 mb 0.00 in0.0 mm 0.00 in0.0 mm 0.38 in9.7 mm
06:44 PM 35.6°F2.0°C 31.2°F-0.4°C 84% 19.0 mph W30.6 kmh W 27.0 mph43.5 kmh 30.16 in1021.3 mb 0.00 in0.0 mm 0.00 in0.0 mm 0.38 in9.7 mm
06:46 PM 35.5°F1.9°C 31.1°F-0.5°C 84% 19.0 mph W30.6 kmh W 27.0 mph43.5 kmh 30.16 in1021.3 mb 0.00 in0.0 mm 0.00 in0.0 mm 0.38 in9.7 mm
06:48 PM 35.5°F1.9°C 31.1°F-0.5°C 84% 18.0 mph W29.0 kmh W 27.0 mph43.5 kmh 30.16 in1021.3 mb 0.00 in0.0 mm 0.00 in0.0 mm 0.38 in9.7 mm
06:50 PM 35.5°F1.9°C 31.1°F-0.5°C 84% 17.0 mph W27.4 kmh W 25.0 mph40.2 kmh 30.16 in1021.3 mb 0.00 in0.0 mm 0.00 in0.0 mm 0.38 in9.7 mm
06:52 PM 35.5°F1.9°C 31.1°F-0.5°C 84% 17.0 mph WSW27.4 kmh WSW 25.0 mph40.2 kmh 30.16 in1021.3 mb 0.00 in0.0 mm 0.00 in0.0 mm 0.38 in9.7 mm
06:54 PM 35.5°F1.9°C 31.1°F-0.5°C 84% 17.0 mph WSW27.4 kmh WSW 25.0 mph40.2 kmh 30.17 in1021.7 mb 0.00 in0.0 mm 0.00 in0.0 mm 0.38 in9.7 mm
06:56 PM 35.5°F1.9°C 31.1°F-0.5°C 84% 17.0 mph WSW27.4 kmh WSW 27.0 mph43.5 kmh 30.17 in1021.7 mb 0.00 in0.0 mm 0.00 in0.0 mm 0.38 in9.7 mm
06:58 PM 35.5°F1.9°C 31.1°F-0.5°C 84% 18.0 mph WSW29.0 kmh WSW 27.0 mph43.5 kmh 30.17 in1021.7 mb 0.00 in0.0 mm 0.00 in0.0 mm 0.38 in9.7 mm
07:00 PM 35.5°F1.9°C 31.1°F-0.5°C 84% 18.0 mph W29.0 kmh W 27.0 mph43.5 kmh 30.17 in1021.7 mb 0.00 in0.0 mm 0.00 in0.0 mm 0.38 in9.7 mm
07:02 PM 35.5°F1.9°C 31.1°F-0.5°C 84% 18.0 mph W29.0 kmh W 27.0 mph43.5 kmh 30.18 in1022.0 mb 0.00 in0.0 mm 0.00 in0.0 mm 0.38 in9.7 mm
07:04 PM 35.5°F1.9°C 31.1°F-0.5°C 84% 17.0 mph W27.4 kmh W 27.0 mph43.5 kmh 30.18 in1022.0 mb 0.00 in0.0 mm 0.00 in0.0 mm 0.38 in9.7 mm
07:06 PM 35.5°F1.9°C 31.1°F-0.5°C 84% 17.0 mph W27.4 kmh W 25.0 mph40.2 kmh 30.18 in1022.0 mb 0.00 in0.0 mm 0.00 in0.0 mm 0.38 in9.7 mm
07:08 PM 35.4°F1.9°C 31.0°F-0.6°C 84% 17.0 mph W27.4 kmh W 25.0 mph40.2 kmh 30.18 in1022.0 mb 0.00 in0.0 mm 0.00 in0.0 mm 0.38 in9.7 mm
07:10 PM 35.4°F1.9°C 31.0°F-0.6°C 84% 16.0 mph W25.7 kmh W 25.0 mph40.2 kmh 30.18 in1022.0 mb 0.00 in0.0 mm 0.00 in0.0 mm 0.38 in9.7 mm
07:12 PM 35.4°F1.9°C 31.0°F-0.6°C 84% 16.0 mph W25.7 kmh W 24.0 mph38.6 kmh 30.18 in1022.0 mb 0.00 in0.0 mm 0.00 in0.0 mm 0.38 in9.7 mm
07:14 PM 35.4°F1.9°C 31.0°F-0.6°C 84% 16.0 mph W25.7 kmh W 24.0 mph38.6 kmh 30.18 in1022.0 mb 0.00 in0.0 mm 0.00 in0.0 mm 0.38 in9.7 mm
07:16 PM 35.4°F1.9°C 31.3°F-0.4°C 85% 16.0 mph W25.7 kmh W 24.0 mph38.6 kmh 30.19 in1022.4 mb 0.00 in0.0 mm 0.00 in0.0 mm 0.38 in9.7 mm
07:18 PM 35.3°F1.8°C 30.9°F-0.6°C 84% 16.0 mph W25.7 kmh W 24.0 mph38.6 kmh 30.19 in1022.4 mb 0.00 in0.0 mm 0.00 in0.0 mm 0.38 in9.7 mm
07:20 PM 35.3°F1.8°C 31.2°F-0.4°C 85% 16.0 mph W25.7 kmh W 24.0 mph38.6 kmh 30.19 in1022.4 mb 0.00 in0.0 mm 0.00 in0.0 mm 0.38 in9.7 mm
07:22 PM 35.3°F1.8°C 30.9°F-0.6°C 84% 16.0 mph W25.7 kmh W 24.0 mph38.6 kmh 30.19 in1022.4 mb 0.00 in0.0 mm 0.00 in0.0 mm 0.38 in9.7 mm
07:24 PM 35.3°F1.8°C 31.2°F-0.4°C 85% 16.0 mph W25.7 kmh W 24.0 mph38.6 kmh 30.19 in1022.4 mb 0.00 in0.0 mm 0.00 in0.0 mm 0.38 in9.7 mm
07:26 PM 35.3°F1.8°C 31.2°F-0.4°C 85% 16.0 mph W25.7 kmh W 24.0 mph38.6 kmh 30.20 in1022.7 mb 0.00 in0.0 mm 0.00 in0.0 mm 0.38 in9.7 mm
07:28 PM 35.3°F1.8°C 31.2°F-0.4°C 85% 16.0 mph W25.7 kmh W 22.0 mph35.4 kmh 30.20 in1022.7 mb 0.00 in0.0 mm 0.00 in0.0 mm 0.38 in9.7 mm
07:30 PM 35.3°F1.8°C 31.2°F-0.4°C 85% 16.0 mph W25.7 kmh W 24.0 mph38.6 kmh 30.20 in1022.7 mb 0.00 in0.0 mm 0.00 in0.0 mm 0.38 in9.7 mm
07:32 PM 35.3°F1.8°C 30.9°F-0.6°C 84% 16.0 mph W25.7 kmh W 24.0 mph38.6 kmh 30.20 in1022.7 mb 0.00 in0.0 mm 0.00 in0.0 mm 0.38 in9.7 mm
07:34 PM 35.3°F1.8°C 31.2°F-0.4°C 85% 16.0 mph W25.7 kmh W 24.0 mph38.6 kmh 30.20 in1022.7 mb 0.00 in0.0 mm 0.00 in0.0 mm 0.38 in9.7 mm
07:36 PM 35.3°F1.8°C 31.2°F-0.4°C 85% 16.0 mph WSW25.7 kmh WSW 24.0 mph38.6 kmh 30.20 in1022.7 mb 0.00 in0.0 mm 0.00 in0.0 mm 0.38 in9.7 mm
07:38 PM 35.3°F1.8°C 31.2°F-0.4°C 85% 16.0 mph W25.7 kmh W 24.0 mph38.6 kmh 30.20 in1022.7 mb 0.00 in0.0 mm 0.00 in0.0 mm 0.38 in9.7 mm
07:40 PM 35.3°F1.8°C 31.2°F-0.4°C 85% 16.0 mph W25.7 kmh W 21.0 mph33.8 kmh 30.21 in1023.0 mb 0.00 in0.0 mm 0.00 in0.0 mm 0.38 in9.7 mm
07:42 PM 35.3°F1.8°C 31.2°F-0.4°C 85% 16.0 mph W25.7 kmh W 22.0 mph35.4 kmh 30.21 in1023.0 mb 0.00 in0.0 mm 0.00 in0.0 mm 0.38 in9.7 mm
07:44 PM 35.3°F1.8°C 30.9°F-0.6°C 84% 17.0 mph W27.4 kmh W 23.0 mph37.0 kmh 30.21 in1023.0 mb 0.00 in0.0 mm 0.00 in0.0 mm 0.38 in9.7 mm
07:46 PM 35.3°F1.8°C 30.9°F-0.6°C 84% 17.0 mph W27.4 kmh W 23.0 mph37.0 kmh 30.21 in1023.0 mb 0.00 in0.0 mm 0.00 in0.0 mm 0.38 in9.7 mm
07:48 PM 35.3°F1.8°C 30.9°F-0.6°C 84% 17.0 mph W27.4 kmh W 23.0 mph37.0 kmh 30.21 in1023.0 mb 0.00 in0.0 mm 0.00 in0.0 mm 0.38 in9.7 mm
07:50 PM 35.3°F1.8°C 31.2°F-0.4°C 85% 17.0 mph W27.4 kmh W 23.0 mph37.0 kmh 30.21 in1023.0 mb 0.00 in0.0 mm 0.00 in0.0 mm 0.38 in9.7 mm
07:52 PM 35.3°F1.8°C 31.2°F-0.4°C 85% 17.0 mph W27.4 kmh W 23.0 mph37.0 kmh 30.22 in1023.4 mb 0.00 in0.0 mm 0.00 in0.0 mm 0.38 in9.7 mm
07:54 PM 35.2°F1.8°C 31.1°F-0.5°C 85% 17.0 mph W27.4 kmh W 22.0 mph35.4 kmh 30.22 in1023.4 mb 0.00 in0.0 mm 0.00 in0.0 mm 0.38 in9.7 mm
07:56 PM 35.3°F1.8°C 30.9°F-0.6°C 84% 16.0 mph W25.7 kmh W 22.0 mph35.4 kmh 30.22 in1023.4 mb 0.00 in0.0 mm 0.00 in0.0 mm 0.38 in9.7 mm
07:58 PM 35.2°F1.8°C 30.9°F-0.6°C 84% 16.0 mph W25.7 kmh W 22.0 mph35.4 kmh 30.23 in1023.7 mb 0.00 in0.0 mm 0.00 in0.0 mm 0.38 in9.7 mm
08:00 PM 35.2°F1.8°C 30.9°F-0.6°C 84% 17.0 mph W27.4 kmh W 22.0 mph35.4 kmh 30.23 in1023.7 mb 0.00 in0.0 mm 0.00 in0.0 mm 0.38 in9.7 mm
08:02 PM 35.2°F1.8°C 31.1°F-0.5°C 85% 16.0 mph W25.7 kmh W 24.0 mph38.6 kmh 30.23 in1023.7 mb 0.00 in0.0 mm 0.00 in0.0 mm 0.38 in9.7 mm
08:04 PM 35.2°F1.8°C 31.1°F-0.5°C 85% 16.0 mph W25.7 kmh W 24.0 mph38.6 kmh 30.23 in1023.7 mb 0.00 in0.0 mm 0.00 in0.0 mm 0.38 in9.7 mm
08:06 PM 35.2°F1.8°C 30.9°F-0.6°C 84% 16.0 mph W25.7 kmh W 24.0 mph38.6 kmh 30.23 in1023.7 mb 0.00 in0.0 mm 0.00 in0.0 mm 0.38 in9.7 mm
08:08 PM 35.2°F1.8°C 31.1°F-0.5°C 85% 16.0 mph W25.7 kmh W 24.0 mph38.6 kmh 30.23 in1023.7 mb 0.00 in0.0 mm 0.00 in0.0 mm 0.38 in9.7 mm
08:10 PM 35.2°F1.8°C 31.1°F-0.5°C 85% 16.0 mph W25.7 kmh W 24.0 mph38.6 kmh 30.23 in1023.7 mb 0.00 in0.0 mm 0.00 in0.0 mm 0.38 in9.7 mm
08:12 PM 35.2°F1.8°C 31.1°F-0.5°C 85% 16.0 mph W25.7 kmh W 23.0 mph37.0 kmh 30.23 in1023.7 mb 0.00 in0.0 mm 0.00 in0.0 mm 0.38 in9.7 mm
08:14 PM 35.2°F1.8°C 31.1°F-0.5°C 85% 16.0 mph W25.7 kmh W 23.0 mph37.0 kmh 30.23 in1023.7 mb 0.00 in0.0 mm 0.00 in0.0 mm 0.38 in9.7 mm
08:16 PM 35.1°F1.7°C 31.0°F-0.6°C 85% 16.0 mph W25.7 kmh W 23.0 mph37.0 kmh 30.23 in1023.7 mb 0.00 in0.0 mm 0.00 in0.0 mm 0.38 in9.7 mm
08:18 PM 35.1°F1.7°C 31.0°F-0.6°C 85% 15.0 mph W24.1 kmh W 22.0 mph35.4 kmh 30.23 in1023.7 mb 0.00 in0.0 mm 0.00 in0.0 mm 0.38 in9.7 mm
08:20 PM 35.1°F1.7°C 31.0°F-0.6°C 85% 15.0 mph W24.1 kmh W 22.0 mph35.4 kmh 30.24 in1024.0 mb 0.00 in0.0 mm 0.00 in0.0 mm 0.38 in9.7 mm
08:22 PM 35.1°F1.7°C 31.0°F-0.6°C 85% 15.0 mph W24.1 kmh W 21.0 mph33.8 kmh 30.24 in1024.0 mb 0.00 in0.0 mm 0.00 in0.0 mm 0.38 in9.7 mm
08:24 PM 35.1°F1.7°C 31.0°F-0.6°C 85% 15.0 mph W24.1 kmh W 21.0 mph33.8 kmh 30.24 in1024.0 mb 0.00 in0.0 mm 0.00 in0.0 mm 0.38 in9.7 mm
08:26 PM 35.0°F1.7°C 30.9°F-0.6°C 85% 15.0 mph W24.1 kmh W 21.0 mph33.8 kmh 30.24 in1024.0 mb 0.00 in0.0 mm 0.00 in0.0 mm 0.38 in9.7 mm
08:28 PM 35.0°F1.7°C 30.9°F-0.6°C 85% 15.0 mph W24.1 kmh W 21.0 mph33.8 kmh 30.25 in1024.4 mb 0.00 in0.0 mm 0.00 in0.0 mm 0.38 in9.7 mm
08:30 PM 35.0°F1.7°C 30.9°F-0.6°C 85% 15.0 mph W24.1 kmh W 21.0 mph33.8 kmh 30.25 in1024.4 mb 0.00 in0.0 mm 0.00 in0.0 mm 0.38 in9.7 mm
08:32 PM 35.0°F1.7°C 30.9°F-0.6°C 85% 14.0 mph W22.5 kmh W 20.0 mph32.2 kmh 30.25 in1024.4 mb 0.00 in0.0 mm 0.00 in0.0 mm 0.38 in9.7 mm
08:34 PM 35.0°F1.7°C 30.9°F-0.6°C 85% 14.0 mph W22.5 kmh W 19.0 mph30.6 kmh 30.25 in1024.4 mb 0.00 in0.0 mm 0.00 in0.0 mm 0.38 in9.7 mm
08:36 PM 35.0°F1.7°C 30.9°F-0.6°C 85% 14.0 mph W22.5 kmh W 19.0 mph30.6 kmh 30.25 in1024.4 mb 0.00 in0.0 mm 0.00 in0.0 mm 0.38 in9.7 mm
08:38 PM 35.0°F1.7°C 30.9°F-0.6°C 85% 14.0 mph W22.5 kmh W 19.0 mph30.6 kmh 30.25 in1024.4 mb 0.00 in0.0 mm 0.00 in0.0 mm 0.38 in9.7 mm
08:40 PM 35.0°F1.7°C 30.9°F-0.6°C 85% 14.0 mph W22.5 kmh W 19.0 mph30.6 kmh 30.25 in1024.4 mb 0.00 in0.0 mm 0.00 in0.0 mm 0.38 in9.7 mm
08:42 PM 35.0°F1.7°C 30.9°F-0.6°C 85% 14.0 mph W22.5 kmh W 19.0 mph30.6 kmh 30.25 in1024.4 mb 0.00 in0.0 mm 0.00 in0.0 mm 0.38 in9.7 mm
08:44 PM 35.0°F1.7°C 30.9°F-0.6°C 85% 14.0 mph W22.5 kmh W 19.0 mph30.6 kmh 30.25 in1024.4 mb 0.00 in0.0 mm 0.00 in0.0 mm 0.38 in9.7 mm
08:46 PM 35.0°F1.7°C 30.9°F-0.6°C 85% 14.0 mph W22.5 kmh W 19.0 mph30.6 kmh 30.25 in1024.4 mb 0.00 in0.0 mm 0.00 in0.0 mm 0.38 in9.7 mm
08:48 PM 34.9°F1.6°C 30.8°F-0.7°C 85% 14.0 mph W22.5 kmh W 19.0 mph30.6 kmh 30.26 in1024.7 mb 0.00 in0.0 mm 0.00 in0.0 mm 0.38 in9.7 mm
08:50 PM 34.9°F1.6°C 30.8°F-0.7°C 85% 14.0 mph W22.5 kmh W 19.0 mph30.6 kmh 30.26 in1024.7 mb 0.00 in0.0 mm 0.00 in0.0 mm 0.38 in9.7 mm
08:52 PM 34.9°F1.6°C 30.8°F-0.7°C 85% 14.0 mph W22.5 kmh W 19.0 mph30.6 kmh 30.26 in1024.7 mb 0.00 in0.0 mm 0.00 in0.0 mm 0.38 in9.7 mm
08:54 PM 34.9°F1.6°C 30.8°F-0.7°C 85% 14.0 mph W22.5 kmh W 19.0 mph30.6 kmh 30.26 in1024.7 mb 0.00 in0.0 mm 0.00 in0.0 mm 0.38 in9.7 mm
08:56 PM 34.9°F1.6°C 30.8°F-0.7°C 85% 14.0 mph W22.5 kmh W 19.0 mph30.6 kmh 30.26 in1024.7 mb 0.00 in0.0 mm 0.00 in0.0 mm 0.38 in9.7 mm
08:58 PM 34.9°F1.6°C 30.8°F-0.7°C 85% 14.0 mph W22.5 kmh W 19.0 mph30.6 kmh 30.26 in1024.7 mb 0.00 in0.0 mm 0.00 in0.0 mm 0.38 in9.7 mm
09:00 PM 34.9°F1.6°C 30.8°F-0.7°C 85% 14.0 mph W22.5 kmh W 19.0 mph30.6 kmh 30.26 in1024.7 mb 0.00 in0.0 mm 0.00 in0.0 mm 0.38 in9.7 mm
09:02 PM 34.9°F1.6°C 30.8°F-0.7°C 85% 14.0 mph W22.5 kmh W 21.0 mph33.8 kmh 30.26 in1024.7 mb 0.00 in0.0 mm 0.00 in0.0 mm 0.38 in9.7 mm
09:04 PM 34.9°F1.6°C 30.8°F-0.7°C 85% 14.0 mph W22.5 kmh W 21.0 mph33.8 kmh 30.26 in1024.7 mb 0.00 in0.0 mm 0.00 in0.0 mm 0.38 in9.7 mm
09:06 PM 34.9°F1.6°C 30.8°F-0.7°C 85% 14.0 mph W22.5 kmh W 21.0 mph33.8 kmh 30.26 in1024.7 mb 0.00 in0.0 mm 0.00 in0.0 mm 0.38 in9.7 mm
09:08 PM 34.9°F1.6°C 30.8°F-0.7°C 85% 14.0 mph W22.5 kmh W 21.0 mph33.8 kmh 30.27 in1025.1 mb 0.00 in0.0 mm 0.00 in0.0 mm 0.38 in9.7 mm
09:10 PM 34.8°F1.6°C 30.8°F-0.7°C 85% 14.0 mph W22.5 kmh W 21.0 mph33.8 kmh 30.27 in1025.1 mb 0.00 in0.0 mm 0.00 in0.0 mm 0.38 in9.7 mm
09:12 PM 34.9°F1.6°C 30.8°F-0.7°C 85% 14.0 mph W22.5 kmh W 19.0 mph30.6 kmh 30.27 in1025.1 mb 0.00 in0.0 mm 0.00 in0.0 mm 0.38 in9.7 mm
09:14 PM 34.8°F1.6°C 30.8°F-0.7°C 85% 14.0 mph W22.5 kmh W 19.0 mph30.6 kmh 30.27 in1025.1 mb 0.00 in0.0 mm 0.00 in0.0 mm 0.38 in9.7 mm
09:16 PM 34.8°F1.6°C 30.8°F-0.7°C 85% 14.0 mph W22.5 kmh W 21.0 mph33.8 kmh 30.27 in1025.1 mb 0.00 in0.0 mm 0.00 in0.0 mm 0.38 in9.7 mm
09:18 PM 34.8°F1.6°C 30.8°F-0.7°C 85% 14.0 mph W22.5 kmh W 21.0 mph33.8 kmh 30.28 in1025.4 mb 0.00 in0.0 mm 0.00 in0.0 mm 0.38 in9.7 mm
09:20 PM 34.8°F1.6°C 30.8°F-0.7°C 85% 14.0 mph W22.5 kmh W 21.0 mph33.8 kmh 30.28 in1025.4 mb 0.00 in0.0 mm 0.00 in0.0 mm 0.38 in9.7 mm
09:22 PM 34.8°F1.6°C 30.8°F-0.7°C 85% 14.0 mph W22.5 kmh W 21.0 mph33.8 kmh 30.29 in1025.7 mb 0.00 in0.0 mm 0.00 in0.0 mm 0.38 in9.7 mm
09:24 PM 34.8°F1.6°C 31.0°F-0.6°C 86% 13.0 mph W20.9 kmh W 21.0 mph33.8 kmh 30.28 in1025.4 mb 0.00 in0.0 mm 0.00 in0.0 mm 0.38 in9.7 mm
09:26 PM 34.8°F1.6°C 30.8°F-0.7°C 85% 13.0 mph W20.9 kmh W 19.0 mph30.6 kmh 30.29 in1025.7 mb 0.00 in0.0 mm 0.00 in0.0 mm 0.38 in9.7 mm
09:28 PM 34.7°F1.5°C 30.9°F-0.6°C 86% 13.0 mph W20.9 kmh W 19.0 mph30.6 kmh 30.29 in1025.7 mb 0.00 in0.0 mm 0.00 in0.0 mm 0.38 in9.7 mm
09:30 PM 34.7°F1.5°C 30.7°F-0.7°C 85% 13.0 mph W20.9 kmh W 19.0 mph30.6 kmh 30.29 in1025.7 mb 0.00 in0.0 mm 0.00 in0.0 mm 0.38 in9.7 mm
09:32 PM 34.7°F1.5°C 30.9°F-0.6°C 86% 14.0 mph W22.5 kmh W 19.0 mph30.6 kmh 30.29 in1025.7 mb 0.00 in0.0 mm 0.00 in0.0 mm 0.38 in9.7 mm
09:34 PM 34.7°F1.5°C 30.9°F-0.6°C 86% 13.0 mph W20.9 kmh W 19.0 mph30.6 kmh 30.30 in1026.1 mb 0.00 in0.0 mm 0.00 in0.0 mm 0.38 in9.7 mm
09:36 PM 34.7°F1.5°C 30.9°F-0.6°C 86% 14.0 mph W22.5 kmh W 19.0 mph30.6 kmh 30.30 in1026.1 mb 0.00 in0.0 mm 0.00 in0.0 mm 0.38 in9.7 mm
09:38 PM 34.7°F1.5°C 30.9°F-0.6°C 86% 14.0 mph W22.5 kmh W 19.0 mph30.6 kmh 30.30 in1026.1 mb 0.00 in0.0 mm 0.00 in0.0 mm 0.38 in9.7 mm
09:40 PM 34.7°F1.5°C 30.9°F-0.6°C 86% 13.0 mph W20.9 kmh W 18.0 mph29.0 kmh 30.30 in1026.1 mb 0.00 in0.0 mm 0.00 in0.0 mm 0.38 in9.7 mm
09:42 PM 34.7°F1.5°C 30.9°F-0.6°C 86% 13.0 mph W20.9 kmh W 18.0 mph29.0 kmh 30.30 in1026.1 mb 0.00 in0.0 mm 0.00 in0.0 mm 0.38 in9.7 mm
09:44 PM 34.6°F1.4°C 30.8°F-0.7°C 86% 13.0 mph W20.9 kmh W 18.0 mph29.0 kmh 30.31 in1026.4 mb 0.00 in0.0 mm 0.00 in0.0 mm 0.38 in9.7 mm
09:46 PM 34.6°F1.4°C 30.8°F-0.7°C 86% 12.0 mph W19.3 kmh W 18.0 mph29.0 kmh 30.31 in1026.4 mb 0.00 in0.0 mm 0.00 in0.0 mm 0.38 in9.7 mm
09:48 PM 34.6°F1.4°C 30.8°F-0.7°C 86% 12.0 mph W19.3 kmh W 18.0 mph29.0 kmh 30.31 in1026.4 mb 0.00 in0.0 mm 0.00 in0.0 mm 0.38 in9.7 mm
09:50 PM 34.6°F1.4°C 30.8°F-0.7°C 86% 12.0 mph W19.3 kmh W 19.0 mph30.6 kmh 30.31 in1026.4 mb 0.00 in0.0 mm 0.00 in0.0 mm 0.38 in9.7 mm
09:52 PM 34.5°F1.4°C 30.5°F-0.8°C 85% 13.0 mph W20.9 kmh W 19.0 mph30.6 kmh 30.30 in1026.1 mb 0.00 in0.0 mm 0.00 in0.0 mm 0.38 in9.7 mm
09:54 PM 34.5°F1.4°C 30.5°F-0.8°C 85% 13.0 mph W20.9 kmh W 19.0 mph30.6 kmh 30.30 in1026.1 mb 0.00 in0.0 mm 0.00 in0.0 mm 0.38 in9.7 mm
09:56 PM 34.5°F1.4°C 30.5°F-0.8°C 85% 13.0 mph W20.9 kmh W 19.0 mph30.6 kmh 30.31 in1026.4 mb 0.00 in0.0 mm 0.00 in0.0 mm 0.38 in9.7 mm
09:58 PM 34.5°F1.4°C 30.7°F-0.7°C 86% 13.0 mph W20.9 kmh W 19.0 mph30.6 kmh 30.31 in1026.4 mb 0.00 in0.0 mm 0.00 in0.0 mm 0.38 in9.7 mm
10:00 PM 34.4°F1.3°C 30.4°F-0.9°C 85% 13.0 mph W20.9 kmh W 18.0 mph29.0 kmh 30.31 in1026.4 mb 0.00 in0.0 mm 0.00 in0.0 mm 0.38 in9.7 mm
10:02 PM 34.4°F1.3°C 30.4°F-0.9°C 85% 13.0 mph W20.9 kmh W 18.0 mph29.0 kmh 30.30 in1026.1 mb 0.00 in0.0 mm 0.00 in0.0 mm 0.38 in9.7 mm
10:04 PM 34.4°F1.3°C 30.4°F-0.9°C 85% 13.0 mph W20.9 kmh W 19.0 mph30.6 kmh 30.30 in1026.1 mb 0.00 in0.0 mm 0.00 in0.0 mm 0.38 in9.7 mm
10:06 PM 34.4°F1.3°C 30.4°F-0.9°C 85% 13.0 mph W20.9 kmh W 19.0 mph30.6 kmh 30.30 in1026.1 mb 0.00 in0.0 mm 0.00 in0.0 mm 0.38 in9.7 mm
10:08 PM 34.4°F1.3°C 30.4°F-0.9°C 85% 14.0 mph W22.5 kmh W 19.0 mph30.6 kmh 30.30 in1026.1 mb 0.00 in0.0 mm 0.00 in0.0 mm 0.38 in9.7 mm
10:10 PM 34.4°F1.3°C 30.4°F-0.9°C 85% 14.0 mph W22.5 kmh W 19.0 mph30.6 kmh 30.30 in1026.1 mb 0.00 in0.0 mm 0.00 in0.0 mm 0.38 in9.7 mm
10:12 PM 34.4°F1.3°C 30.4°F-0.9°C 85% 14.0 mph W22.5 kmh W 21.0 mph33.8 kmh 30.30 in1026.1 mb 0.00 in0.0 mm 0.00 in0.0 mm 0.38 in9.7 mm
10:14 PM 34.4°F1.3°C 30.4°F-0.9°C 85% 14.0 mph W22.5 kmh W 21.0 mph33.8 kmh 30.30 in1026.1 mb 0.00 in0.0 mm 0.00 in0.0 mm 0.38 in9.7 mm
10:16 PM 34.4°F1.3°C 30.4°F-0.9°C 85% 14.0 mph W22.5 kmh W 21.0 mph33.8 kmh 30.31 in1026.4 mb 0.00 in0.0 mm 0.00 in0.0 mm 0.38 in9.7 mm
10:18 PM 34.4°F1.3°C 30.4°F-0.9°C 85% 15.0 mph W24.1 kmh W 21.0 mph33.8 kmh 30.31 in1026.4 mb 0.00 in0.0 mm 0.00 in0.0 mm 0.38 in9.7 mm
10:20 PM 34.4°F1.3°C 30.4°F-0.9°C 85% 15.0 mph W24.1 kmh W 21.0 mph33.8 kmh 30.31 in1026.4 mb 0.00 in0.0 mm 0.00 in0.0 mm 0.38 in9.7 mm
10:22 PM 34.4°F1.3°C 30.4°F-0.9°C 85% 14.0 mph W22.5 kmh W 21.0 mph33.8 kmh 30.31 in1026.4 mb 0.00 in0.0 mm 0.00 in0.0 mm 0.38 in9.7 mm
10:24 PM 34.4°F1.3°C 30.4°F-0.9°C 85% 14.0 mph W22.5 kmh W 20.0 mph32.2 kmh 30.31 in1026.4 mb 0.00 in0.0 mm 0.00 in0.0 mm 0.38 in9.7 mm
10:26 PM 34.4°F1.3°C 30.4°F-0.9°C 85% 14.0 mph W22.5 kmh W 20.0 mph32.2 kmh 30.31 in1026.4 mb 0.00 in0.0 mm 0.00 in0.0 mm 0.38 in9.7 mm
10:28 PM 34.4°F1.3°C 30.4°F-0.9°C 85% 13.0 mph W20.9 kmh W 17.0 mph27.4 kmh 30.31 in1026.4 mb 0.00 in0.0 mm 0.00 in0.0 mm 0.38 in9.7 mm
10:30 PM 34.4°F1.3°C 30.4°F-0.9°C 85% 13.0 mph W20.9 kmh W 17.0 mph27.4 kmh 30.32 in1026.8 mb 0.00 in0.0 mm 0.00 in0.0 mm 0.38 in9.7 mm
10:32 PM 34.3°F1.3°C 30.3°F-0.9°C 85% 13.0 mph W20.9 kmh W 19.0 mph30.6 kmh 30.32 in1026.8 mb 0.00 in0.0 mm 0.00 in0.0 mm 0.38 in9.7 mm
10:34 PM 34.3°F1.3°C 30.3°F-0.9°C 85% 13.0 mph W20.9 kmh W 19.0 mph30.6 kmh 30.32 in1026.8 mb 0.00 in0.0 mm 0.00 in0.0 mm 0.38 in9.7 mm
10:36 PM 34.3°F1.3°C 30.3°F-0.9°C 85% 13.0 mph W20.9 kmh W 19.0 mph30.6 kmh 30.32 in1026.8 mb 0.00 in0.0 mm 0.00 in0.0 mm 0.38 in9.7 mm
10:38 PM 34.3°F1.3°C 30.3°F-0.9°C 85% 13.0 mph W20.9 kmh W 19.0 mph30.6 kmh 30.32 in1026.8 mb 0.00 in0.0 mm 0.00 in0.0 mm 0.38 in9.7 mm
10:40 PM 34.3°F1.3°C 30.3°F-0.9°C 85% 14.0 mph W22.5 kmh W 19.0 mph30.6 kmh 30.32 in1026.8 mb 0.00 in0.0 mm 0.00 in0.0 mm 0.38 in9.7 mm
10:42 PM 34.3°F1.3°C 30.5°F-0.8°C 86% 13.0 mph W20.9 kmh W 18.0 mph29.0 kmh 30.32 in1026.8 mb 0.00 in0.0 mm 0.00 in0.0 mm 0.38 in9.7 mm
10:44 PM 34.3°F1.3°C 30.5°F-0.8°C 86% 13.0 mph W20.9 kmh W 18.0 mph29.0 kmh 30.32 in1026.8 mb 0.00 in0.0 mm 0.00 in0.0 mm 0.38 in9.7 mm
10:46 PM 34.2°F1.2°C 30.4°F-0.9°C 86% 13.0 mph W20.9 kmh W 16.0 mph25.7 kmh 30.32 in1026.8 mb 0.00 in0.0 mm 0.00 in0.0 mm 0.38 in9.7 mm
10:48 PM 34.2°F1.2°C 30.4°F-0.9°C 86% 13.0 mph W20.9 kmh W 17.0 mph27.4 kmh 30.32 in1026.8 mb 0.00 in0.0 mm 0.00 in0.0 mm 0.38 in9.7 mm
10:50 PM 34.2°F1.2°C 30.4°F-0.9°C 86% 13.0 mph W20.9 kmh W 17.0 mph27.4 kmh 30.32 in1026.8 mb 0.00 in0.0 mm 0.00 in0.0 mm 0.38 in9.7 mm
10:52 PM 34.2°F1.2°C 30.4°F-0.9°C 86% 13.0 mph W20.9 kmh W 17.0 mph27.4 kmh 30.32 in1026.8 mb 0.00 in0.0 mm 0.00 in0.0 mm 0.38 in9.7 mm
10:54 PM 34.2°F1.2°C 30.4°F-0.9°C 86% 13.0 mph W20.9 kmh W 17.0 mph27.4 kmh 30.32 in1026.8 mb 0.00 in0.0 mm 0.00 in0.0 mm 0.38 in9.7 mm
10:56 PM 34.2°F1.2°C 30.4°F-0.9°C 86% 12.0 mph W19.3 kmh W 17.0 mph27.4 kmh 30.32 in1026.8 mb 0.00 in0.0 mm 0.00 in0.0 mm 0.38 in9.7 mm
10:58 PM 34.2°F1.2°C 30.4°F-0.9°C 86% 12.0 mph W19.3 kmh W 17.0 mph27.4 kmh 30.32 in1026.8 mb 0.00 in0.0 mm 0.00 in0.0 mm 0.38 in9.7 mm
11:00 PM 34.2°F1.2°C 30.4°F-0.9°C 86% 12.0 mph W19.3 kmh W 17.0 mph27.4 kmh 30.32 in1026.8 mb 0.00 in0.0 mm 0.00 in0.0 mm 0.38 in9.7 mm
11:02 PM 34.2°F1.2°C 30.4°F-0.9°C 86% 12.0 mph W19.3 kmh W 17.0 mph27.4 kmh 30.32 in1026.8 mb 0.00 in0.0 mm 0.00 in0.0 mm 0.38 in9.7 mm
11:04 PM 34.2°F1.2°C 30.4°F-0.9°C 86% 12.0 mph W19.3 kmh W 16.0 mph25.7 kmh 30.32 in1026.8 mb 0.00 in0.0 mm 0.00 in0.0 mm 0.38 in9.7 mm
11:06 PM 34.2°F1.2°C 30.4°F-0.9°C 86% 12.0 mph W19.3 kmh W 16.0 mph25.7 kmh 30.32 in1026.8 mb 0.00 in0.0 mm 0.00 in0.0 mm 0.38 in9.7 mm
11:08 PM 34.2°F1.2°C 30.4°F-0.9°C 86% 11.0 mph W17.7 kmh W 16.0 mph25.7 kmh 30.32 in1026.8 mb 0.00 in0.0 mm 0.00 in0.0 mm 0.38 in9.7 mm
11:10 PM 34.2°F1.2°C 30.4°F-0.9°C 86% 11.0 mph W17.7 kmh W 16.0 mph25.7 kmh 30.32 in1026.8 mb 0.00 in0.0 mm 0.00 in0.0 mm 0.38 in9.7 mm
11:12 PM 34.2°F1.2°C 30.4°F-0.9°C 86% 11.0 mph W17.7 kmh W 16.0 mph25.7 kmh 30.32 in1026.8 mb 0.00 in0.0 mm 0.00 in0.0 mm 0.38 in9.7 mm
11:14 PM 34.3°F1.3°C 30.5°F-0.8°C 86% 11.0 mph W17.7 kmh W 16.0 mph25.7 kmh 30.33 in1027.1 mb 0.00 in0.0 mm 0.00 in0.0 mm 0.38 in9.7 mm
11:16 PM 34.3°F1.3°C 30.3°F-0.9°C 85% 12.0 mph WNW19.3 kmh WNW 18.0 mph29.0 kmh 30.32 in1026.8 mb 0.00 in0.0 mm 0.00 in0.0 mm 0.38 in9.7 mm
11:18 PM 34.3°F1.3°C 30.3°F-0.9°C 85% 12.0 mph WNW19.3 kmh WNW 19.0 mph30.6 kmh 30.32 in1026.8 mb 0.00 in0.0 mm 0.00 in0.0 mm 0.38 in9.7 mm
11:20 PM 34.3°F1.3°C 30.3°F-0.9°C 85% 13.0 mph WNW20.9 kmh WNW 19.0 mph30.6 kmh 30.32 in1026.8 mb 0.00 in0.0 mm 0.00 in0.0 mm 0.38 in9.7 mm
11:22 PM 34.3°F1.3°C 30.3°F-0.9°C 85% 13.0 mph WNW20.9 kmh WNW 19.0 mph30.6 kmh 30.32 in1026.8 mb 0.00 in0.0 mm 0.00 in0.0 mm 0.38 in9.7 mm
11:24 PM 34.4°F1.3°C 30.4°F-0.9°C 85% 14.0 mph WNW22.5 kmh WNW 19.0 mph30.6 kmh 30.32 in1026.8 mb 0.00 in0.0 mm 0.00 in0.0 mm 0.38 in9.7 mm
11:26 PM 34.4°F1.3°C 30.4°F-0.9°C 85% 14.0 mph WNW22.5 kmh WNW 19.0 mph30.6 kmh 30.32 in1026.8 mb 0.00 in0.0 mm 0.00 in0.0 mm 0.38 in9.7 mm
11:28 PM 34.4°F1.3°C 30.4°F-0.9°C 85% 14.0 mph WNW22.5 kmh WNW 19.0 mph30.6 kmh 30.32 in1026.8 mb 0.00 in0.0 mm 0.00 in0.0 mm 0.38 in9.7 mm
11:30 PM 34.4°F1.3°C 30.1°F-1.1°C 84% 14.0 mph WNW22.5 kmh WNW 19.0 mph30.6 kmh 30.32 in1026.8 mb 0.00 in0.0 mm 0.00 in0.0 mm 0.38 in9.7 mm
11:32 PM 34.4°F1.3°C 30.1°F-1.1°C 84% 14.0 mph WNW22.5 kmh WNW 19.0 mph30.6 kmh 30.32 in1026.8 mb 0.00 in0.0 mm 0.00 in0.0 mm 0.38 in9.7 mm
11:34 PM 34.4°F1.3°C 30.4°F-0.9°C 85% 14.0 mph WNW22.5 kmh WNW 19.0 mph30.6 kmh 30.32 in1026.8 mb 0.00 in0.0 mm 0.00 in0.0 mm 0.38 in9.7 mm
11:36 PM 34.4°F1.3°C 30.4°F-0.9°C 85% 14.0 mph WNW22.5 kmh WNW 19.0 mph30.6 kmh 30.33 in1027.1 mb 0.00 in0.0 mm 0.00 in0.0 mm 0.38 in9.7 mm
11:38 PM 34.3°F1.3°C 30.3°F-0.9°C 85% 13.0 mph WNW20.9 kmh WNW 18.0 mph29.0 kmh 30.33 in1027.1 mb 0.00 in0.0 mm 0.00 in0.0 mm 0.38 in9.7 mm
11:40 PM 34.3°F1.3°C 30.3°F-0.9°C 85% 13.0 mph WNW20.9 kmh WNW 18.0 mph29.0 kmh 30.33 in1027.1 mb 0.00 in0.0 mm 0.00 in0.0 mm 0.38 in9.7 mm
11:42 PM 34.3°F1.3°C 30.3°F-0.9°C 85% 12.0 mph WNW19.3 kmh WNW 17.0 mph27.4 kmh 30.33 in1027.1 mb 0.00 in0.0 mm 0.00 in0.0 mm 0.38 in9.7 mm
11:44 PM 34.3°F1.3°C 30.3°F-0.9°C 85% 12.0 mph WNW19.3 kmh WNW 17.0 mph27.4 kmh 30.33 in1027.1 mb 0.00 in0.0 mm 0.00 in0.0 mm 0.38 in9.7 mm
11:46 PM 34.3°F1.3°C 30.3°F-0.9°C 85% 12.0 mph WNW19.3 kmh WNW 19.0 mph30.6 kmh 30.33 in1027.1 mb 0.00 in0.0 mm 0.00 in0.0 mm 0.38 in9.7 mm
11:48 PM 34.3°F1.3°C 30.3°F-0.9°C 85% 13.0 mph NW20.9 kmh NW 19.0 mph30.6 kmh 30.32 in1026.8 mb 0.00 in0.0 mm 0.00 in0.0 mm 0.38 in9.7 mm
11:50 PM 34.2°F1.2°C 30.2°F-1.0°C 85% 13.0 mph WNW20.9 kmh WNW 19.0 mph30.6 kmh 30.33 in1027.1 mb 0.00 in0.0 mm 0.00 in0.0 mm 0.38 in9.7 mm
11:52 PM 34.2°F1.2°C 30.2°F-1.0°C 85% 13.0 mph WNW20.9 kmh WNW 19.0 mph30.6 kmh 30.33 in1027.1 mb 0.00 in0.0 mm 0.00 in0.0 mm 0.38 in9.7 mm
11:54 PM 34.2°F1.2°C 30.2°F-1.0°C 85% 13.0 mph WNW20.9 kmh WNW 19.0 mph30.6 kmh 30.33 in1027.1 mb 0.00 in0.0 mm 0.00 in0.0 mm 0.38 in9.7 mm
11:56 PM 34.2°F1.2°C 30.2°F-1.0°C 85% 13.0 mph WNW20.9 kmh WNW 19.0 mph30.6 kmh 30.33 in1027.1 mb 0.00 in0.0 mm 0.00 in0.0 mm 0.38 in9.7 mm
11:58 PM 34.2°F1.2°C 30.2°F-1.0°C 85% 13.0 mph WNW20.9 kmh WNW 19.0 mph30.6 kmh 30.33 in1027.1 mb 0.00 in0.0 mm 0.00 in0.0 mm 0.38 in9.7 mm